<?xml version="1.0" encoding="UTF-8" standalone="no" ?>
<gpx xmlns="http://www.topografix.com/GPX/1/1" xmlns:xsi="http://www.w3.org/2001/XMLSchema-instance" xsi:schemaLocation="http://www.topografix.com/GPX/1/1 http://www.topografix.com/GPX/1/1/gpx.xsd" version="1.1" creator="VisuGPX - https://www.visugpx.com">
  <metadata>
    <name>Veigy Christian rando 01</name>
    <desc><![CDATA[Veigy Christian rando 01]]></desc>
  </metadata>
  <trk>
    <name><![CDATA[4 oct. 2022 à 13:53:14]]></name>
    <extensions>
      <line xmlns="http://www.topografix.com/GPX/gpx_style/0/2">
        <color>0000FF</color>
        <width>4</width>
      </line>
    </extensions>
    <trkseg>
      <trkpt lat="46.2693" lon="6.25823">
        <ele>432</ele>
        <time>2022-10-04T11:53:14Z</time>
      </trkpt>
      <trkpt lat="46.26922" lon="6.25836">
        <ele>432</ele>
        <time>2022-10-04T11:54:36Z</time>
      </trkpt>
      <trkpt lat="46.26926" lon="6.25851">
        <ele>432</ele>
        <time>2022-10-04T11:54:40Z</time>
      </trkpt>
      <trkpt lat="46.26964" lon="6.25878">
        <ele>432</ele>
        <time>2022-10-04T11:54:52Z</time>
      </trkpt>
      <trkpt lat="46.26977" lon="6.25878">
        <ele>432</ele>
        <time>2022-10-04T11:54:55Z</time>
      </trkpt>
      <trkpt lat="46.26979" lon="6.25863">
        <ele>432</ele>
        <time>2022-10-04T11:54:58Z</time>
      </trkpt>
      <trkpt lat="46.2693" lon="6.25825">
        <ele>432</ele>
        <time>2022-10-04T11:55:12Z</time>
      </trkpt>
      <trkpt lat="46.26925" lon="6.25843">
        <ele>432</ele>
        <time>2022-10-04T11:56:51Z</time>
      </trkpt>
      <trkpt lat="46.2693" lon="6.25854">
        <ele>432</ele>
        <time>2022-10-04T11:56:59Z</time>
      </trkpt>
      <trkpt lat="46.26947" lon="6.25865">
        <ele>432</ele>
        <time>2022-10-04T11:57:06Z</time>
      </trkpt>
      <trkpt lat="46.26948" lon="6.2588">
        <ele>432</ele>
        <time>2022-10-04T11:57:12Z</time>
      </trkpt>
      <trkpt lat="46.26937" lon="6.25903">
        <ele>433</ele>
        <time>2022-10-04T11:57:21Z</time>
      </trkpt>
      <trkpt lat="46.26934" lon="6.25919">
        <ele>432</ele>
        <time>2022-10-04T11:57:28Z</time>
      </trkpt>
      <trkpt lat="46.26939" lon="6.25929">
        <ele>433</ele>
        <time>2022-10-04T11:57:36Z</time>
      </trkpt>
      <trkpt lat="46.26948" lon="6.25934">
        <ele>433</ele>
        <time>2022-10-04T11:57:42Z</time>
      </trkpt>
      <trkpt lat="46.26956" lon="6.25941">
        <ele>432</ele>
        <time>2022-10-04T11:57:48Z</time>
      </trkpt>
      <trkpt lat="46.26965" lon="6.25968">
        <ele>433</ele>
        <time>2022-10-04T11:57:56Z</time>
      </trkpt>
      <trkpt lat="46.26964" lon="6.25982">
        <ele>433</ele>
        <time>2022-10-04T11:57:59Z</time>
      </trkpt>
      <trkpt lat="46.26956" lon="6.25998">
        <ele>433</ele>
        <time>2022-10-04T11:58:09Z</time>
      </trkpt>
      <trkpt lat="46.2696" lon="6.26013">
        <ele>433</ele>
        <time>2022-10-04T11:58:19Z</time>
      </trkpt>
      <trkpt lat="46.26969" lon="6.26004">
        <ele>433</ele>
        <time>2022-10-04T11:58:25Z</time>
      </trkpt>
      <trkpt lat="46.26971" lon="6.25998">
        <ele>433</ele>
        <time>2022-10-04T11:58:27Z</time>
      </trkpt>
      <trkpt lat="46.26976" lon="6.25993">
        <ele>433</ele>
        <time>2022-10-04T11:58:29Z</time>
      </trkpt>
      <trkpt lat="46.26983" lon="6.25992">
        <ele>433</ele>
        <time>2022-10-04T11:58:31Z</time>
      </trkpt>
      <trkpt lat="46.26989" lon="6.25997">
        <ele>433</ele>
        <time>2022-10-04T11:58:33Z</time>
      </trkpt>
      <trkpt lat="46.26997" lon="6.26011">
        <ele>432</ele>
        <time>2022-10-04T11:58:37Z</time>
      </trkpt>
      <trkpt lat="46.27006" lon="6.26019">
        <ele>433</ele>
        <time>2022-10-04T11:58:40Z</time>
      </trkpt>
      <trkpt lat="46.27009" lon="6.26013">
        <ele>433</ele>
        <time>2022-10-04T11:58:44Z</time>
      </trkpt>
      <trkpt lat="46.26994" lon="6.25997">
        <ele>432</ele>
        <time>2022-10-04T11:58:50Z</time>
      </trkpt>
      <trkpt lat="46.26981" lon="6.25991">
        <ele>432</ele>
        <time>2022-10-04T11:58:54Z</time>
      </trkpt>
      <trkpt lat="46.26976" lon="6.25984">
        <ele>432</ele>
        <time>2022-10-04T11:58:56Z</time>
      </trkpt>
      <trkpt lat="46.26972" lon="6.25966">
        <ele>433</ele>
        <time>2022-10-04T11:59:00Z</time>
      </trkpt>
      <trkpt lat="46.26961" lon="6.25938">
        <ele>433</ele>
        <time>2022-10-04T11:59:09Z</time>
      </trkpt>
      <trkpt lat="46.26975" lon="6.25892">
        <ele>432</ele>
        <time>2022-10-04T11:59:25Z</time>
      </trkpt>
      <trkpt lat="46.26977" lon="6.25883">
        <ele>432</ele>
        <time>2022-10-04T11:59:44Z</time>
      </trkpt>
      <trkpt lat="46.26981" lon="6.25866">
        <ele>432</ele>
        <time>2022-10-04T12:02:04Z</time>
      </trkpt>
      <trkpt lat="46.2697" lon="6.25855">
        <ele>433</ele>
        <time>2022-10-04T12:02:13Z</time>
      </trkpt>
      <trkpt lat="46.26941" lon="6.2584">
        <ele>433</ele>
        <time>2022-10-04T12:02:21Z</time>
      </trkpt>
      <trkpt lat="46.26933" lon="6.25831">
        <ele>433</ele>
        <time>2022-10-04T12:02:23Z</time>
      </trkpt>
      <trkpt lat="46.26924" lon="6.25831">
        <ele>433</ele>
        <time>2022-10-04T12:02:25Z</time>
      </trkpt>
      <trkpt lat="46.26922" lon="6.25842">
        <ele>432</ele>
        <time>2022-10-04T12:03:03Z</time>
      </trkpt>
      <trkpt lat="46.26955" lon="6.25877">
        <ele>433</ele>
        <time>2022-10-04T12:03:13Z</time>
      </trkpt>
      <trkpt lat="46.26968" lon="6.25881">
        <ele>433</ele>
        <time>2022-10-04T12:03:16Z</time>
      </trkpt>
      <trkpt lat="46.26975" lon="6.25873">
        <ele>433</ele>
        <time>2022-10-04T12:03:19Z</time>
      </trkpt>
      <trkpt lat="46.26978" lon="6.25881">
        <ele>433</ele>
        <time>2022-10-04T12:03:24Z</time>
      </trkpt>
      <trkpt lat="46.26978" lon="6.25878">
        <ele>432</ele>
        <time>2022-10-04T12:04:17Z</time>
      </trkpt>
      <trkpt lat="46.26967" lon="6.25861">
        <ele>432</ele>
        <time>2022-10-04T12:04:23Z</time>
      </trkpt>
      <trkpt lat="46.26939" lon="6.25836">
        <ele>432</ele>
        <time>2022-10-04T12:04:31Z</time>
      </trkpt>
      <trkpt lat="46.26927" lon="6.25833">
        <ele>433</ele>
        <time>2022-10-04T12:04:35Z</time>
      </trkpt>
      <trkpt lat="46.26928" lon="6.25816">
        <ele>433</ele>
        <time>2022-10-04T12:04:41Z</time>
      </trkpt>
      <trkpt lat="46.26919" lon="6.25805">
        <ele>433</ele>
        <time>2022-10-04T12:04:46Z</time>
      </trkpt>
      <trkpt lat="46.26924" lon="6.25789">
        <ele>432</ele>
        <time>2022-10-04T12:04:50Z</time>
      </trkpt>
      <trkpt lat="46.2696" lon="6.25708">
        <ele>432</ele>
        <time>2022-10-04T12:05:04Z</time>
      </trkpt>
      <trkpt lat="46.26967" lon="6.25695">
        <ele>433</ele>
        <time>2022-10-04T12:05:07Z</time>
      </trkpt>
      <trkpt lat="46.26981" lon="6.25699">
        <ele>433</ele>
        <time>2022-10-04T12:05:10Z</time>
      </trkpt>
      <trkpt lat="46.27066" lon="6.25766">
        <ele>432</ele>
        <time>2022-10-04T12:05:27Z</time>
      </trkpt>
      <trkpt lat="46.2716" lon="6.25814">
        <ele>431</ele>
        <time>2022-10-04T12:05:43Z</time>
      </trkpt>
      <trkpt lat="46.27169" lon="6.25815">
        <ele>431</ele>
        <time>2022-10-04T12:05:46Z</time>
      </trkpt>
      <trkpt lat="46.27241" lon="6.25585">
        <ele>432</ele>
        <time>2022-10-04T12:06:18Z</time>
      </trkpt>
      <trkpt lat="46.27313" lon="6.25311">
        <ele>428</ele>
        <time>2022-10-04T12:06:48Z</time>
      </trkpt>
      <trkpt lat="46.27342" lon="6.25253">
        <ele>427</ele>
        <time>2022-10-04T12:06:56Z</time>
      </trkpt>
      <trkpt lat="46.27403" lon="6.24968">
        <ele>427</ele>
        <time>2022-10-04T12:07:28Z</time>
      </trkpt>
      <trkpt lat="46.27413" lon="6.24914">
        <ele>427</ele>
        <time>2022-10-04T12:07:34Z</time>
      </trkpt>
      <trkpt lat="46.27419" lon="6.24895">
        <ele>427</ele>
        <time>2022-10-04T12:07:36Z</time>
      </trkpt>
      <trkpt lat="46.27441" lon="6.24872">
        <ele>427</ele>
        <time>2022-10-04T12:07:40Z</time>
      </trkpt>
      <trkpt lat="46.27582" lon="6.24789">
        <ele>426</ele>
        <time>2022-10-04T12:08:04Z</time>
      </trkpt>
      <trkpt lat="46.27609" lon="6.24772">
        <ele>426</ele>
        <time>2022-10-04T12:08:09Z</time>
      </trkpt>
      <trkpt lat="46.27641" lon="6.24751">
        <ele>426</ele>
        <time>2022-10-04T12:08:15Z</time>
      </trkpt>
      <trkpt lat="46.27654" lon="6.24736">
        <ele>427</ele>
        <time>2022-10-04T12:08:18Z</time>
      </trkpt>
      <trkpt lat="46.2766" lon="6.24722">
        <ele>427</ele>
        <time>2022-10-04T12:08:20Z</time>
      </trkpt>
      <trkpt lat="46.27673" lon="6.24713">
        <ele>427</ele>
        <time>2022-10-04T12:08:23Z</time>
      </trkpt>
      <trkpt lat="46.27687" lon="6.24713">
        <ele>427</ele>
        <time>2022-10-04T12:08:25Z</time>
      </trkpt>
      <trkpt lat="46.27683" lon="6.24699">
        <ele>427</ele>
        <time>2022-10-04T12:08:26Z</time>
      </trkpt>
      <trkpt lat="46.27687" lon="6.24692">
        <ele>427</ele>
        <time>2022-10-04T12:08:27Z</time>
      </trkpt>
      <trkpt lat="46.27691" lon="6.24678">
        <ele>427</ele>
        <time>2022-10-04T12:08:29Z</time>
      </trkpt>
      <trkpt lat="46.27811" lon="6.2447">
        <ele>426</ele>
        <time>2022-10-04T12:09:00Z</time>
      </trkpt>
      <trkpt lat="46.27813" lon="6.24463">
        <ele>426</ele>
        <time>2022-10-04T12:09:01Z</time>
      </trkpt>
      <trkpt lat="46.27819" lon="6.24457">
        <ele>426</ele>
        <time>2022-10-04T12:09:02Z</time>
      </trkpt>
      <trkpt lat="46.27859" lon="6.24397">
        <ele>425</ele>
        <time>2022-10-04T12:09:11Z</time>
      </trkpt>
      <trkpt lat="46.27908" lon="6.24355">
        <ele>425</ele>
        <time>2022-10-04T12:09:20Z</time>
      </trkpt>
      <trkpt lat="46.27938" lon="6.24345">
        <ele>425</ele>
        <time>2022-10-04T12:09:25Z</time>
      </trkpt>
      <trkpt lat="46.28028" lon="6.24337">
        <ele>425</ele>
        <time>2022-10-04T12:09:40Z</time>
      </trkpt>
      <trkpt lat="46.28057" lon="6.24323">
        <ele>425</ele>
        <time>2022-10-04T12:09:45Z</time>
      </trkpt>
      <trkpt lat="46.2809" lon="6.24319">
        <ele>425</ele>
        <time>2022-10-04T12:09:51Z</time>
      </trkpt>
      <trkpt lat="46.28105" lon="6.24327">
        <ele>425</ele>
        <time>2022-10-04T12:09:55Z</time>
      </trkpt>
      <trkpt lat="46.28129" lon="6.2436">
        <ele>425</ele>
        <time>2022-10-04T12:10:00Z</time>
      </trkpt>
      <trkpt lat="46.28133" lon="6.24364">
        <ele>425</ele>
        <time>2022-10-04T12:10:01Z</time>
      </trkpt>
      <trkpt lat="46.2815" lon="6.24359">
        <ele>425</ele>
        <time>2022-10-04T12:10:04Z</time>
      </trkpt>
      <trkpt lat="46.28298" lon="6.24178">
        <ele>421</ele>
        <time>2022-10-04T12:10:35Z</time>
      </trkpt>
      <trkpt lat="46.28347" lon="6.24098">
        <ele>418</ele>
        <time>2022-10-04T12:10:46Z</time>
      </trkpt>
      <trkpt lat="46.28363" lon="6.24076">
        <ele>418</ele>
        <time>2022-10-04T12:10:51Z</time>
      </trkpt>
      <trkpt lat="46.28453" lon="6.23993">
        <ele>424</ele>
        <time>2022-10-04T12:11:22Z</time>
      </trkpt>
      <trkpt lat="46.28453" lon="6.23974">
        <ele>424</ele>
        <time>2022-10-04T12:11:25Z</time>
      </trkpt>
      <trkpt lat="46.28362" lon="6.23809">
        <ele>426</ele>
        <time>2022-10-04T12:11:56Z</time>
      </trkpt>
      <trkpt lat="46.28259" lon="6.23615">
        <ele>425</ele>
        <time>2022-10-04T12:12:28Z</time>
      </trkpt>
      <trkpt lat="46.28212" lon="6.23496">
        <ele>426</ele>
        <time>2022-10-04T12:12:46Z</time>
      </trkpt>
      <trkpt lat="46.28081" lon="6.2331">
        <ele>426</ele>
        <time>2022-10-04T12:13:17Z</time>
      </trkpt>
      <trkpt lat="46.27955" lon="6.23137">
        <ele>425</ele>
        <time>2022-10-04T12:13:49Z</time>
      </trkpt>
      <trkpt lat="46.27858" lon="6.22996">
        <ele>423</ele>
        <time>2022-10-04T12:14:13Z</time>
      </trkpt>
      <trkpt lat="46.27818" lon="6.22924">
        <ele>422</ele>
        <time>2022-10-04T12:14:23Z</time>
      </trkpt>
      <trkpt lat="46.27781" lon="6.22878">
        <ele>422</ele>
        <time>2022-10-04T12:14:31Z</time>
      </trkpt>
      <trkpt lat="46.27593" lon="6.22762">
        <ele>419</ele>
        <time>2022-10-04T12:15:03Z</time>
      </trkpt>
      <trkpt lat="46.27526" lon="6.22696">
        <ele>419</ele>
        <time>2022-10-04T12:15:17Z</time>
      </trkpt>
      <trkpt lat="46.27519" lon="6.22687">
        <ele>419</ele>
        <time>2022-10-04T12:15:19Z</time>
      </trkpt>
      <trkpt lat="46.27511" lon="6.2268">
        <ele>420</ele>
        <time>2022-10-04T12:15:21Z</time>
      </trkpt>
      <trkpt lat="46.27499" lon="6.22684">
        <ele>420</ele>
        <time>2022-10-04T12:15:24Z</time>
      </trkpt>
      <trkpt lat="46.27374" lon="6.22627">
        <ele>424</ele>
        <time>2022-10-04T12:15:56Z</time>
      </trkpt>
      <trkpt lat="46.27334" lon="6.2261">
        <ele>425</ele>
        <time>2022-10-04T12:16:04Z</time>
      </trkpt>
      <trkpt lat="46.27239" lon="6.22524">
        <ele>426</ele>
        <time>2022-10-04T12:16:24Z</time>
      </trkpt>
      <trkpt lat="46.27191" lon="6.22469">
        <ele>425</ele>
        <time>2022-10-04T12:16:34Z</time>
      </trkpt>
      <trkpt lat="46.27006" lon="6.22371">
        <ele>425</ele>
        <time>2022-10-04T12:17:06Z</time>
      </trkpt>
      <trkpt lat="46.26984" lon="6.22361">
        <ele>425</ele>
        <time>2022-10-04T12:17:10Z</time>
      </trkpt>
      <trkpt lat="46.26879" lon="6.22361">
        <ele>427</ele>
        <time>2022-10-04T12:17:30Z</time>
      </trkpt>
      <trkpt lat="46.26869" lon="6.22363">
        <ele>428</ele>
        <time>2022-10-04T12:17:32Z</time>
      </trkpt>
      <trkpt lat="46.26851" lon="6.22375">
        <ele>428</ele>
        <time>2022-10-04T12:17:36Z</time>
      </trkpt>
      <trkpt lat="46.26842" lon="6.22384">
        <ele>428</ele>
        <time>2022-10-04T12:17:38Z</time>
      </trkpt>
      <trkpt lat="46.26806" lon="6.22501">
        <ele>430</ele>
        <time>2022-10-04T12:17:54Z</time>
      </trkpt>
      <trkpt lat="46.26683" lon="6.2266">
        <ele>426</ele>
        <time>2022-10-04T12:18:18Z</time>
      </trkpt>
      <trkpt lat="46.26673" lon="6.22665">
        <ele>426</ele>
        <time>2022-10-04T12:18:20Z</time>
      </trkpt>
      <trkpt lat="46.26663" lon="6.22657">
        <ele>427</ele>
        <time>2022-10-04T12:18:22Z</time>
      </trkpt>
      <trkpt lat="46.26549" lon="6.22516">
        <ele>428</ele>
        <time>2022-10-04T12:19:00Z</time>
      </trkpt>
      <trkpt lat="46.26555" lon="6.22506">
        <ele>428</ele>
        <time>2022-10-04T12:19:25Z</time>
      </trkpt>
      <trkpt lat="46.26574" lon="6.22434">
        <ele>428</ele>
        <time>2022-10-04T12:19:42Z</time>
      </trkpt>
      <trkpt lat="46.26576" lon="6.22422">
        <ele>428</ele>
        <time>2022-10-04T12:19:43Z</time>
      </trkpt>
      <trkpt lat="46.26576" lon="6.22413">
        <ele>428</ele>
        <time>2022-10-04T12:19:45Z</time>
      </trkpt>
      <trkpt lat="46.26574" lon="6.22405">
        <ele>428</ele>
        <time>2022-10-04T12:19:47Z</time>
      </trkpt>
      <trkpt lat="46.2657" lon="6.224">
        <ele>429</ele>
        <time>2022-10-04T12:19:49Z</time>
      </trkpt>
      <trkpt lat="46.26564" lon="6.22396">
        <ele>429</ele>
        <time>2022-10-04T12:19:51Z</time>
      </trkpt>
      <trkpt lat="46.26558" lon="6.22396">
        <ele>429</ele>
        <time>2022-10-04T12:19:53Z</time>
      </trkpt>
      <trkpt lat="46.26553" lon="6.22404">
        <ele>430</ele>
        <time>2022-10-04T12:19:57Z</time>
      </trkpt>
      <trkpt lat="46.26549" lon="6.22413">
        <ele>430</ele>
        <time>2022-10-04T12:20:03Z</time>
      </trkpt>
      <trkpt lat="46.26535" lon="6.22415">
        <ele>430</ele>
        <time>2022-10-04T12:20:08Z</time>
      </trkpt>
      <trkpt lat="46.26526" lon="6.22412">
        <ele>430</ele>
        <time>2022-10-04T12:20:10Z</time>
      </trkpt>
      <trkpt lat="46.26516" lon="6.22402">
        <ele>430</ele>
        <time>2022-10-04T12:20:12Z</time>
      </trkpt>
      <trkpt lat="46.2646" lon="6.22329">
        <ele>431</ele>
        <time>2022-10-04T12:20:29Z</time>
      </trkpt>
      <trkpt lat="46.26436" lon="6.22327">
        <ele>431</ele>
        <time>2022-10-04T12:20:34Z</time>
      </trkpt>
      <trkpt lat="46.26416" lon="6.22328">
        <ele>431</ele>
        <time>2022-10-04T12:20:38Z</time>
      </trkpt>
      <trkpt lat="46.26401" lon="6.22323">
        <ele>431</ele>
        <time>2022-10-04T12:20:41Z</time>
      </trkpt>
      <trkpt lat="46.26327" lon="6.22279">
        <ele>433</ele>
        <time>2022-10-04T12:21:01Z</time>
      </trkpt>
      <trkpt lat="46.26322" lon="6.22278">
        <ele>433</ele>
        <time>2022-10-04T12:21:04Z</time>
      </trkpt>
      <trkpt lat="46.26299" lon="6.22269">
        <ele>434</ele>
        <time>2022-10-04T12:21:17Z</time>
      </trkpt>
      <trkpt lat="46.26286" lon="6.2226">
        <ele>435</ele>
        <time>2022-10-04T12:21:21Z</time>
      </trkpt>
      <trkpt lat="46.26281" lon="6.22253">
        <ele>435</ele>
        <time>2022-10-04T12:21:23Z</time>
      </trkpt>
      <trkpt lat="46.26256" lon="6.22222">
        <ele>435</ele>
        <time>2022-10-04T12:21:30Z</time>
      </trkpt>
      <trkpt lat="46.26251" lon="6.22219">
        <ele>435</ele>
        <time>2022-10-04T12:21:31Z</time>
      </trkpt>
      <trkpt lat="46.26225" lon="6.22181">
        <ele>435</ele>
        <time>2022-10-04T12:21:39Z</time>
      </trkpt>
      <trkpt lat="46.26094" lon="6.22085">
        <ele>433</ele>
        <time>2022-10-04T12:22:02Z</time>
      </trkpt>
      <trkpt lat="46.26043" lon="6.22021">
        <ele>431</ele>
        <time>2022-10-04T12:22:12Z</time>
      </trkpt>
      <trkpt lat="46.2595" lon="6.21973">
        <ele>431</ele>
        <time>2022-10-04T12:22:29Z</time>
      </trkpt>
      <trkpt lat="46.25878" lon="6.21918">
        <ele>431</ele>
        <time>2022-10-04T12:22:43Z</time>
      </trkpt>
      <trkpt lat="46.25726" lon="6.21869">
        <ele>431</ele>
        <time>2022-10-04T12:23:09Z</time>
      </trkpt>
      <trkpt lat="46.2562" lon="6.21767">
        <ele>430</ele>
        <time>2022-10-04T12:23:29Z</time>
      </trkpt>
      <trkpt lat="46.2552" lon="6.21632">
        <ele>428</ele>
        <time>2022-10-04T12:23:52Z</time>
      </trkpt>
      <trkpt lat="46.25464" lon="6.21547">
        <ele>427</ele>
        <time>2022-10-04T12:24:06Z</time>
      </trkpt>
      <trkpt lat="46.25428" lon="6.21514">
        <ele>427</ele>
        <time>2022-10-04T12:24:14Z</time>
      </trkpt>
      <trkpt lat="46.25429" lon="6.21506">
        <ele>427</ele>
        <time>2022-10-04T12:24:15Z</time>
      </trkpt>
      <trkpt lat="46.25437" lon="6.21441">
        <ele>426</ele>
        <time>2022-10-04T12:24:23Z</time>
      </trkpt>
      <trkpt lat="46.25435" lon="6.21428">
        <ele>425</ele>
        <time>2022-10-04T12:24:25Z</time>
      </trkpt>
      <trkpt lat="46.25355" lon="6.2133">
        <ele>423</ele>
        <time>2022-10-04T12:24:40Z</time>
      </trkpt>
      <trkpt lat="46.25325" lon="6.2131">
        <ele>423</ele>
        <time>2022-10-04T12:24:46Z</time>
      </trkpt>
      <trkpt lat="46.25171" lon="6.21241">
        <ele>424</ele>
        <time>2022-10-04T12:25:17Z</time>
      </trkpt>
      <trkpt lat="46.25166" lon="6.2124">
        <ele>424</ele>
        <time>2022-10-04T12:25:18Z</time>
      </trkpt>
      <trkpt lat="46.25021" lon="6.21155">
        <ele>422</ele>
        <time>2022-10-04T12:25:45Z</time>
      </trkpt>
      <trkpt lat="46.25006" lon="6.21145">
        <ele>422</ele>
        <time>2022-10-04T12:25:48Z</time>
      </trkpt>
      <trkpt lat="46.24875" lon="6.21017">
        <ele>424</ele>
        <time>2022-10-04T12:26:19Z</time>
      </trkpt>
      <trkpt lat="46.24763" lon="6.20908">
        <ele>425</ele>
        <time>2022-10-04T12:26:47Z</time>
      </trkpt>
      <trkpt lat="46.24724" lon="6.20849">
        <ele>424</ele>
        <time>2022-10-04T12:26:57Z</time>
      </trkpt>
      <trkpt lat="46.24722" lon="6.20842">
        <ele>424</ele>
        <time>2022-10-04T12:26:58Z</time>
      </trkpt>
      <trkpt lat="46.24659" lon="6.20742">
        <ele>424</ele>
        <time>2022-10-04T12:27:15Z</time>
      </trkpt>
      <trkpt lat="46.24654" lon="6.20741">
        <ele>424</ele>
        <time>2022-10-04T12:27:16Z</time>
      </trkpt>
      <trkpt lat="46.24649" lon="6.20735">
        <ele>424</ele>
        <time>2022-10-04T12:27:17Z</time>
      </trkpt>
      <trkpt lat="46.24553" lon="6.20619">
        <ele>423</ele>
        <time>2022-10-04T12:27:41Z</time>
      </trkpt>
      <trkpt lat="46.24541" lon="6.20607">
        <ele>423</ele>
        <time>2022-10-04T12:27:45Z</time>
      </trkpt>
      <trkpt lat="46.24536" lon="6.20606">
        <ele>423</ele>
        <time>2022-10-04T12:27:46Z</time>
      </trkpt>
      <trkpt lat="46.24528" lon="6.20609">
        <ele>423</ele>
        <time>2022-10-04T12:27:48Z</time>
      </trkpt>
      <trkpt lat="46.24523" lon="6.20623">
        <ele>423</ele>
        <time>2022-10-04T12:27:50Z</time>
      </trkpt>
      <trkpt lat="46.2452" lon="6.20638">
        <ele>423</ele>
        <time>2022-10-04T12:27:52Z</time>
      </trkpt>
      <trkpt lat="46.24491" lon="6.20692">
        <ele>423</ele>
        <time>2022-10-04T12:28:01Z</time>
      </trkpt>
      <trkpt lat="46.2439" lon="6.20841">
        <ele>430</ele>
        <time>2022-10-04T12:28:32Z</time>
      </trkpt>
      <trkpt lat="46.24311" lon="6.20986">
        <ele>436</ele>
        <time>2022-10-04T12:29:04Z</time>
      </trkpt>
      <trkpt lat="46.243" lon="6.20988">
        <ele>436</ele>
        <time>2022-10-04T12:29:06Z</time>
      </trkpt>
      <trkpt lat="46.24258" lon="6.20984">
        <ele>434</ele>
        <time>2022-10-04T12:29:14Z</time>
      </trkpt>
      <trkpt lat="46.24179" lon="6.21009">
        <ele>434</ele>
        <time>2022-10-04T12:29:29Z</time>
      </trkpt>
      <trkpt lat="46.24119" lon="6.20993">
        <ele>433</ele>
        <time>2022-10-04T12:29:40Z</time>
      </trkpt>
      <trkpt lat="46.24109" lon="6.20995">
        <ele>433</ele>
        <time>2022-10-04T12:29:42Z</time>
      </trkpt>
      <trkpt lat="46.24105" lon="6.21006">
        <ele>433</ele>
        <time>2022-10-04T12:29:47Z</time>
      </trkpt>
      <trkpt lat="46.24101" lon="6.21017">
        <ele>433</ele>
        <time>2022-10-04T12:29:49Z</time>
      </trkpt>
      <trkpt lat="46.24232" lon="6.21144">
        <ele>432</ele>
        <time>2022-10-04T12:30:19Z</time>
      </trkpt>
      <trkpt lat="46.24233" lon="6.21157">
        <ele>432</ele>
        <time>2022-10-04T12:30:21Z</time>
      </trkpt>
      <trkpt lat="46.24148" lon="6.21364">
        <ele>431</ele>
        <time>2022-10-04T12:30:52Z</time>
      </trkpt>
      <trkpt lat="46.24105" lon="6.21489">
        <ele>430</ele>
        <time>2022-10-04T12:31:09Z</time>
      </trkpt>
      <trkpt lat="46.24102" lon="6.21494">
        <ele>430</ele>
        <time>2022-10-04T12:31:10Z</time>
      </trkpt>
      <trkpt lat="46.24097" lon="6.21497">
        <ele>430</ele>
        <time>2022-10-04T12:31:11Z</time>
      </trkpt>
      <trkpt lat="46.24092" lon="6.21497">
        <ele>430</ele>
        <time>2022-10-04T12:31:12Z</time>
      </trkpt>
      <trkpt lat="46.24021" lon="6.2144">
        <ele>432</ele>
        <time>2022-10-04T12:31:30Z</time>
      </trkpt>
      <trkpt lat="46.24016" lon="6.21434">
        <ele>433</ele>
        <time>2022-10-04T12:31:32Z</time>
      </trkpt>
      <trkpt lat="46.23899" lon="6.21452">
        <ele>439</ele>
        <time>2022-10-04T12:32:03Z</time>
      </trkpt>
      <trkpt lat="46.23828" lon="6.21472">
        <ele>446</ele>
        <time>2022-10-04T12:32:27Z</time>
      </trkpt>
      <trkpt lat="46.23812" lon="6.2147">
        <ele>447</ele>
        <time>2022-10-04T12:32:33Z</time>
      </trkpt>
      <trkpt lat="46.23796" lon="6.21464">
        <ele>449</ele>
        <time>2022-10-04T12:32:39Z</time>
      </trkpt>
      <trkpt lat="46.23765" lon="6.21461">
        <ele>452</ele>
        <time>2022-10-04T12:32:49Z</time>
      </trkpt>
      <trkpt lat="46.23746" lon="6.21454">
        <ele>454</ele>
        <time>2022-10-04T12:32:57Z</time>
      </trkpt>
      <trkpt lat="46.23735" lon="6.21444">
        <ele>456</ele>
        <time>2022-10-04T12:33:03Z</time>
      </trkpt>
      <trkpt lat="46.23694" lon="6.21382">
        <ele>460</ele>
        <time>2022-10-04T12:33:25Z</time>
      </trkpt>
      <trkpt lat="46.23683" lon="6.21372">
        <ele>461</ele>
        <time>2022-10-04T12:33:31Z</time>
      </trkpt>
      <trkpt lat="46.23675" lon="6.21362">
        <ele>461</ele>
        <time>2022-10-04T12:33:35Z</time>
      </trkpt>
      <trkpt lat="46.23662" lon="6.21354">
        <ele>462</ele>
        <time>2022-10-04T12:33:39Z</time>
      </trkpt>
      <trkpt lat="46.23649" lon="6.21349">
        <ele>462</ele>
        <time>2022-10-04T12:33:43Z</time>
      </trkpt>
      <trkpt lat="46.23643" lon="6.21351">
        <ele>462</ele>
        <time>2022-10-04T12:33:45Z</time>
      </trkpt>
      <trkpt lat="46.23633" lon="6.21361">
        <ele>461</ele>
        <time>2022-10-04T12:33:49Z</time>
      </trkpt>
      <trkpt lat="46.23628" lon="6.21373">
        <ele>461</ele>
        <time>2022-10-04T12:33:54Z</time>
      </trkpt>
      <trkpt lat="46.23625" lon="6.21381">
        <ele>461</ele>
        <time>2022-10-04T12:34:05Z</time>
      </trkpt>
      <trkpt lat="46.2363" lon="6.21382">
        <ele>461</ele>
        <time>2022-10-04T12:34:46Z</time>
      </trkpt>
      <trkpt lat="46.2362" lon="6.21398">
        <ele>461</ele>
        <time>2022-10-04T12:36:31Z</time>
      </trkpt>
      <trkpt lat="46.23593" lon="6.21494">
        <ele>463</ele>
        <time>2022-10-04T12:36:49Z</time>
      </trkpt>
      <trkpt lat="46.23572" lon="6.21615">
        <ele>466</ele>
        <time>2022-10-04T12:37:15Z</time>
      </trkpt>
      <trkpt lat="46.23559" lon="6.21642">
        <ele>465</ele>
        <time>2022-10-04T12:37:21Z</time>
      </trkpt>
      <trkpt lat="46.2356" lon="6.21657">
        <ele>465</ele>
        <time>2022-10-04T12:37:25Z</time>
      </trkpt>
      <trkpt lat="46.23686" lon="6.21769">
        <ele>460</ele>
        <time>2022-10-04T12:37:50Z</time>
      </trkpt>
      <trkpt lat="46.237" lon="6.21778">
        <ele>459</ele>
        <time>2022-10-04T12:37:52Z</time>
      </trkpt>
      <trkpt lat="46.23709" lon="6.21784">
        <ele>459</ele>
        <time>2022-10-04T12:37:53Z</time>
      </trkpt>
      <trkpt lat="46.23784" lon="6.21815">
        <ele>454</ele>
        <time>2022-10-04T12:38:01Z</time>
      </trkpt>
      <trkpt lat="46.23817" lon="6.21853">
        <ele>450</ele>
        <time>2022-10-04T12:38:05Z</time>
      </trkpt>
      <trkpt lat="46.23825" lon="6.21865">
        <ele>449</ele>
        <time>2022-10-04T12:38:06Z</time>
      </trkpt>
      <trkpt lat="46.23937" lon="6.22283">
        <ele>431</ele>
        <time>2022-10-04T12:38:37Z</time>
      </trkpt>
      <trkpt lat="46.23945" lon="6.22303">
        <ele>430</ele>
        <time>2022-10-04T12:38:39Z</time>
      </trkpt>
      <trkpt lat="46.23953" lon="6.22318">
        <ele>430</ele>
        <time>2022-10-04T12:38:41Z</time>
      </trkpt>
      <trkpt lat="46.23942" lon="6.22331">
        <ele>429</ele>
        <time>2022-10-04T12:38:44Z</time>
      </trkpt>
      <trkpt lat="46.23824" lon="6.22549">
        <ele>426</ele>
        <time>2022-10-04T12:39:16Z</time>
      </trkpt>
      <trkpt lat="46.2373" lon="6.22737">
        <ele>426</ele>
        <time>2022-10-04T12:39:48Z</time>
      </trkpt>
      <trkpt lat="46.23688" lon="6.22842">
        <ele>427</ele>
        <time>2022-10-04T12:40:06Z</time>
      </trkpt>
      <trkpt lat="46.23623" lon="6.23047">
        <ele>427</ele>
        <time>2022-10-04T12:40:37Z</time>
      </trkpt>
      <trkpt lat="46.23607" lon="6.23104">
        <ele>426</ele>
        <time>2022-10-04T12:40:46Z</time>
      </trkpt>
      <trkpt lat="46.23595" lon="6.23118">
        <ele>426</ele>
        <time>2022-10-04T12:40:49Z</time>
      </trkpt>
      <trkpt lat="46.23454" lon="6.23197">
        <ele>427</ele>
        <time>2022-10-04T12:41:21Z</time>
      </trkpt>
      <trkpt lat="46.23319" lon="6.2329">
        <ele>426</ele>
        <time>2022-10-04T12:41:51Z</time>
      </trkpt>
      <trkpt lat="46.23228" lon="6.23318">
        <ele>428</ele>
        <time>2022-10-04T12:42:12Z</time>
      </trkpt>
      <trkpt lat="46.23223" lon="6.23319">
        <ele>428</ele>
        <time>2022-10-04T12:42:14Z</time>
      </trkpt>
      <trkpt lat="46.2322" lon="6.23313">
        <ele>428</ele>
        <time>2022-10-04T12:42:16Z</time>
      </trkpt>
      <trkpt lat="46.23207" lon="6.23163">
        <ele>433</ele>
        <time>2022-10-04T12:42:48Z</time>
      </trkpt>
      <trkpt lat="46.23192" lon="6.23045">
        <ele>436</ele>
        <time>2022-10-04T12:43:16Z</time>
      </trkpt>
      <trkpt lat="46.23209" lon="6.23044">
        <ele>436</ele>
        <time>2022-10-04T12:43:19Z</time>
      </trkpt>
      <trkpt lat="46.23214" lon="6.2304">
        <ele>436</ele>
        <time>2022-10-04T12:43:20Z</time>
      </trkpt>
      <trkpt lat="46.23347" lon="6.22983">
        <ele>433</ele>
        <time>2022-10-04T12:43:51Z</time>
      </trkpt>
      <trkpt lat="46.23391" lon="6.22965">
        <ele>433</ele>
        <time>2022-10-04T12:44:02Z</time>
      </trkpt>
      <trkpt lat="46.2339" lon="6.22941">
        <ele>433</ele>
        <time>2022-10-04T12:44:06Z</time>
      </trkpt>
      <trkpt lat="46.23365" lon="6.22903">
        <ele>434</ele>
        <time>2022-10-04T12:44:15Z</time>
      </trkpt>
      <trkpt lat="46.2334" lon="6.22867">
        <ele>437</ele>
        <time>2022-10-04T12:44:29Z</time>
      </trkpt>
      <trkpt lat="46.23312" lon="6.22821">
        <ele>444</ele>
        <time>2022-10-04T12:44:50Z</time>
      </trkpt>
      <trkpt lat="46.23304" lon="6.22809">
        <ele>446</ele>
        <time>2022-10-04T12:44:57Z</time>
      </trkpt>
      <trkpt lat="46.23297" lon="6.22797">
        <ele>448</ele>
        <time>2022-10-04T12:45:05Z</time>
      </trkpt>
      <trkpt lat="46.23294" lon="6.22792">
        <ele>449</ele>
        <time>2022-10-04T12:45:08Z</time>
      </trkpt>
      <trkpt lat="46.23279" lon="6.22782">
        <ele>453</ele>
        <time>2022-10-04T12:45:19Z</time>
      </trkpt>
      <trkpt lat="46.23271" lon="6.22773">
        <ele>455</ele>
        <time>2022-10-04T12:45:27Z</time>
      </trkpt>
      <trkpt lat="46.23266" lon="6.22773">
        <ele>456</ele>
        <time>2022-10-04T12:45:31Z</time>
      </trkpt>
      <trkpt lat="46.23262" lon="6.22768">
        <ele>457</ele>
        <time>2022-10-04T12:45:36Z</time>
      </trkpt>
      <trkpt lat="46.23259" lon="6.22762">
        <ele>458</ele>
        <time>2022-10-04T12:45:41Z</time>
      </trkpt>
      <trkpt lat="46.23253" lon="6.22759">
        <ele>458</ele>
        <time>2022-10-04T12:46:44Z</time>
      </trkpt>
      <trkpt lat="46.23241" lon="6.22754">
        <ele>458</ele>
        <time>2022-10-04T12:46:50Z</time>
      </trkpt>
      <trkpt lat="46.23232" lon="6.22749">
        <ele>458</ele>
        <time>2022-10-04T12:46:55Z</time>
      </trkpt>
      <trkpt lat="46.23226" lon="6.22746">
        <ele>458</ele>
        <time>2022-10-04T12:46:58Z</time>
      </trkpt>
      <trkpt lat="46.23159" lon="6.22714">
        <ele>461</ele>
        <time>2022-10-04T12:47:30Z</time>
      </trkpt>
      <trkpt lat="46.23132" lon="6.22699">
        <ele>464</ele>
        <time>2022-10-04T12:47:43Z</time>
      </trkpt>
      <trkpt lat="46.23128" lon="6.22697">
        <ele>464</ele>
        <time>2022-10-04T12:47:47Z</time>
      </trkpt>
      <trkpt lat="46.23127" lon="6.22704">
        <ele>464</ele>
        <time>2022-10-04T12:48:11Z</time>
      </trkpt>
      <trkpt lat="46.23121" lon="6.22705">
        <ele>464</ele>
        <time>2022-10-04T12:48:47Z</time>
      </trkpt>
      <trkpt lat="46.2309" lon="6.22688">
        <ele>463</ele>
        <time>2022-10-04T12:48:57Z</time>
      </trkpt>
      <trkpt lat="46.23068" lon="6.22685">
        <ele>461</ele>
        <time>2022-10-04T12:49:03Z</time>
      </trkpt>
      <trkpt lat="46.23063" lon="6.22682">
        <ele>460</ele>
        <time>2022-10-04T12:49:05Z</time>
      </trkpt>
      <trkpt lat="46.23055" lon="6.22682">
        <ele>461</ele>
        <time>2022-10-04T12:49:08Z</time>
      </trkpt>
      <trkpt lat="46.23027" lon="6.22675">
        <ele>461</ele>
        <time>2022-10-04T12:49:16Z</time>
      </trkpt>
      <trkpt lat="46.23018" lon="6.22663">
        <ele>461</ele>
        <time>2022-10-04T12:49:20Z</time>
      </trkpt>
      <trkpt lat="46.23011" lon="6.22656">
        <ele>461</ele>
        <time>2022-10-04T12:49:22Z</time>
      </trkpt>
      <trkpt lat="46.22992" lon="6.22644">
        <ele>460</ele>
        <time>2022-10-04T12:49:27Z</time>
      </trkpt>
      <trkpt lat="46.22981" lon="6.22632">
        <ele>460</ele>
        <time>2022-10-04T12:49:31Z</time>
      </trkpt>
      <trkpt lat="46.22872" lon="6.22555">
        <ele>459</ele>
        <time>2022-10-04T12:50:02Z</time>
      </trkpt>
      <trkpt lat="46.22865" lon="6.22554">
        <ele>459</ele>
        <time>2022-10-04T12:50:04Z</time>
      </trkpt>
      <trkpt lat="46.22862" lon="6.2256">
        <ele>458</ele>
        <time>2022-10-04T12:50:06Z</time>
      </trkpt>
      <trkpt lat="46.22855" lon="6.22603">
        <ele>458</ele>
        <time>2022-10-04T12:50:16Z</time>
      </trkpt>
      <trkpt lat="46.2285" lon="6.2261">
        <ele>458</ele>
        <time>2022-10-04T12:50:17Z</time>
      </trkpt>
      <trkpt lat="46.22835" lon="6.22638">
        <ele>456</ele>
        <time>2022-10-04T12:50:22Z</time>
      </trkpt>
      <trkpt lat="46.22822" lon="6.22647">
        <ele>455</ele>
        <time>2022-10-04T12:50:24Z</time>
      </trkpt>
      <trkpt lat="46.22774" lon="6.22639">
        <ele>451</ele>
        <time>2022-10-04T12:50:30Z</time>
      </trkpt>
      <trkpt lat="46.22746" lon="6.22623">
        <ele>448</ele>
        <time>2022-10-04T12:50:35Z</time>
      </trkpt>
      <trkpt lat="46.22738" lon="6.22614">
        <ele>448</ele>
        <time>2022-10-04T12:50:37Z</time>
      </trkpt>
      <trkpt lat="46.22737" lon="6.22602">
        <ele>448</ele>
        <time>2022-10-04T12:50:38Z</time>
      </trkpt>
      <trkpt lat="46.22714" lon="6.22572">
        <ele>448</ele>
        <time>2022-10-04T12:50:45Z</time>
      </trkpt>
      <trkpt lat="46.22673" lon="6.22554">
        <ele>446</ele>
        <time>2022-10-04T12:50:53Z</time>
      </trkpt>
      <trkpt lat="46.2264" lon="6.22541">
        <ele>445</ele>
        <time>2022-10-04T12:50:58Z</time>
      </trkpt>
      <trkpt lat="46.22601" lon="6.2251">
        <ele>441</ele>
        <time>2022-10-04T12:51:05Z</time>
      </trkpt>
      <trkpt lat="46.2259" lon="6.22509">
        <ele>440</ele>
        <time>2022-10-04T12:51:07Z</time>
      </trkpt>
      <trkpt lat="46.22585" lon="6.22509">
        <ele>440</ele>
        <time>2022-10-04T12:51:08Z</time>
      </trkpt>
      <trkpt lat="46.2258" lon="6.22513">
        <ele>440</ele>
        <time>2022-10-04T12:51:09Z</time>
      </trkpt>
      <trkpt lat="46.22516" lon="6.226">
        <ele>433</ele>
        <time>2022-10-04T12:51:23Z</time>
      </trkpt>
      <trkpt lat="46.22512" lon="6.22596">
        <ele>432</ele>
        <time>2022-10-04T12:51:25Z</time>
      </trkpt>
      <trkpt lat="46.22493" lon="6.22581">
        <ele>432</ele>
        <time>2022-10-04T12:51:30Z</time>
      </trkpt>
      <trkpt lat="46.22486" lon="6.22575">
        <ele>432</ele>
        <time>2022-10-04T12:51:32Z</time>
      </trkpt>
      <trkpt lat="46.22479" lon="6.22569">
        <ele>432</ele>
        <time>2022-10-04T12:51:34Z</time>
      </trkpt>
      <trkpt lat="46.22332" lon="6.22451">
        <ele>427</ele>
        <time>2022-10-04T12:52:02Z</time>
      </trkpt>
      <trkpt lat="46.22328" lon="6.22445">
        <ele>427</ele>
        <time>2022-10-04T12:52:03Z</time>
      </trkpt>
      <trkpt lat="46.2232" lon="6.2243">
        <ele>427</ele>
        <time>2022-10-04T12:52:05Z</time>
      </trkpt>
      <trkpt lat="46.22288" lon="6.22283">
        <ele>426</ele>
        <time>2022-10-04T12:52:25Z</time>
      </trkpt>
      <trkpt lat="46.2228" lon="6.22261">
        <ele>426</ele>
        <time>2022-10-04T12:52:28Z</time>
      </trkpt>
      <trkpt lat="46.22273" lon="6.22226">
        <ele>426</ele>
        <time>2022-10-04T12:52:33Z</time>
      </trkpt>
      <trkpt lat="46.22272" lon="6.22218">
        <ele>426</ele>
        <time>2022-10-04T12:52:34Z</time>
      </trkpt>
      <trkpt lat="46.22234" lon="6.22095">
        <ele>427</ele>
        <time>2022-10-04T12:52:50Z</time>
      </trkpt>
      <trkpt lat="46.22217" lon="6.22072">
        <ele>427</ele>
        <time>2022-10-04T12:52:54Z</time>
      </trkpt>
      <trkpt lat="46.22209" lon="6.22071">
        <ele>427</ele>
        <time>2022-10-04T12:52:55Z</time>
      </trkpt>
      <trkpt lat="46.22204" lon="6.22064">
        <ele>427</ele>
        <time>2022-10-04T12:52:56Z</time>
      </trkpt>
      <trkpt lat="46.22206" lon="6.22053">
        <ele>427</ele>
        <time>2022-10-04T12:52:57Z</time>
      </trkpt>
      <trkpt lat="46.22203" lon="6.22048">
        <ele>427</ele>
        <time>2022-10-04T12:52:58Z</time>
      </trkpt>
      <trkpt lat="46.22195" lon="6.22034">
        <ele>427</ele>
        <time>2022-10-04T12:53:00Z</time>
      </trkpt>
      <trkpt lat="46.22195" lon="6.22024">
        <ele>427</ele>
        <time>2022-10-04T12:53:01Z</time>
      </trkpt>
      <trkpt lat="46.22182" lon="6.22006">
        <ele>428</ele>
        <time>2022-10-04T12:53:05Z</time>
      </trkpt>
      <trkpt lat="46.2207" lon="6.21905">
        <ele>428</ele>
        <time>2022-10-04T12:53:30Z</time>
      </trkpt>
      <trkpt lat="46.22056" lon="6.21888">
        <ele>428</ele>
        <time>2022-10-04T12:53:33Z</time>
      </trkpt>
      <trkpt lat="46.22043" lon="6.21858">
        <ele>427</ele>
        <time>2022-10-04T12:53:37Z</time>
      </trkpt>
      <trkpt lat="46.22039" lon="6.21841">
        <ele>427</ele>
        <time>2022-10-04T12:53:39Z</time>
      </trkpt>
      <trkpt lat="46.22039" lon="6.21834">
        <ele>427</ele>
        <time>2022-10-04T12:53:40Z</time>
      </trkpt>
      <trkpt lat="46.22045" lon="6.21824">
        <ele>426</ele>
        <time>2022-10-04T12:53:42Z</time>
      </trkpt>
      <trkpt lat="46.22202" lon="6.21745">
        <ele>427</ele>
        <time>2022-10-04T12:54:13Z</time>
      </trkpt>
      <trkpt lat="46.22259" lon="6.21718">
        <ele>427</ele>
        <time>2022-10-04T12:54:25Z</time>
      </trkpt>
      <trkpt lat="46.22405" lon="6.21795">
        <ele>430</ele>
        <time>2022-10-04T12:54:56Z</time>
      </trkpt>
      <trkpt lat="46.22472" lon="6.21833">
        <ele>433</ele>
        <time>2022-10-04T12:55:14Z</time>
      </trkpt>
      <trkpt lat="46.22478" lon="6.21834">
        <ele>434</ele>
        <time>2022-10-04T12:55:16Z</time>
      </trkpt>
      <trkpt lat="46.2249" lon="6.21827">
        <ele>434</ele>
        <time>2022-10-04T12:55:20Z</time>
      </trkpt>
      <trkpt lat="46.22506" lon="6.21808">
        <ele>435</ele>
        <time>2022-10-04T12:55:26Z</time>
      </trkpt>
      <trkpt lat="46.22548" lon="6.21745">
        <ele>440</ele>
        <time>2022-10-04T12:55:46Z</time>
      </trkpt>
      <trkpt lat="46.22558" lon="6.21732">
        <ele>440</ele>
        <time>2022-10-04T12:55:50Z</time>
      </trkpt>
      <trkpt lat="46.22567" lon="6.21719">
        <ele>441</ele>
        <time>2022-10-04T12:55:54Z</time>
      </trkpt>
      <trkpt lat="46.22606" lon="6.21591">
        <ele>440</ele>
        <time>2022-10-04T12:56:14Z</time>
      </trkpt>
      <trkpt lat="46.22607" lon="6.21521">
        <ele>438</ele>
        <time>2022-10-04T12:56:23Z</time>
      </trkpt>
      <trkpt lat="46.22606" lon="6.21512">
        <ele>438</ele>
        <time>2022-10-04T12:56:24Z</time>
      </trkpt>
      <trkpt lat="46.22626" lon="6.21367">
        <ele>435</ele>
        <time>2022-10-04T12:56:42Z</time>
      </trkpt>
      <trkpt lat="46.22618" lon="6.21351">
        <ele>435</ele>
        <time>2022-10-04T12:56:44Z</time>
      </trkpt>
      <trkpt lat="46.22606" lon="6.21334">
        <ele>435</ele>
        <time>2022-10-04T12:56:47Z</time>
      </trkpt>
      <trkpt lat="46.22601" lon="6.21322">
        <ele>435</ele>
        <time>2022-10-04T12:56:49Z</time>
      </trkpt>
      <trkpt lat="46.22596" lon="6.21276">
        <ele>435</ele>
        <time>2022-10-04T12:56:57Z</time>
      </trkpt>
      <trkpt lat="46.22599" lon="6.21248">
        <ele>435</ele>
        <time>2022-10-04T12:57:00Z</time>
      </trkpt>
      <trkpt lat="46.22613" lon="6.2121">
        <ele>436</ele>
        <time>2022-10-04T12:57:07Z</time>
      </trkpt>
      <trkpt lat="46.22615" lon="6.21204">
        <ele>436</ele>
        <time>2022-10-04T12:57:08Z</time>
      </trkpt>
      <trkpt lat="46.22679" lon="6.21051">
        <ele>442</ele>
        <time>2022-10-04T12:57:39Z</time>
      </trkpt>
      <trkpt lat="46.22713" lon="6.20993">
        <ele>445</ele>
        <time>2022-10-04T12:57:55Z</time>
      </trkpt>
      <trkpt lat="46.22718" lon="6.20992">
        <ele>447</ele>
        <time>2022-10-04T12:58:04Z</time>
      </trkpt>
      <trkpt lat="46.22723" lon="6.20989">
        <ele>447</ele>
        <time>2022-10-04T12:58:08Z</time>
      </trkpt>
      <trkpt lat="46.22736" lon="6.20972">
        <ele>448</ele>
        <time>2022-10-04T12:58:15Z</time>
      </trkpt>
      <trkpt lat="46.22769" lon="6.20904">
        <ele>450</ele>
        <time>2022-10-04T12:58:35Z</time>
      </trkpt>
      <trkpt lat="46.22777" lon="6.20878">
        <ele>451</ele>
        <time>2022-10-04T12:58:43Z</time>
      </trkpt>
      <trkpt lat="46.22828" lon="6.20792">
        <ele>459</ele>
        <time>2022-10-04T12:59:16Z</time>
      </trkpt>
      <trkpt lat="46.22868" lon="6.2073">
        <ele>464</ele>
        <time>2022-10-04T12:59:40Z</time>
      </trkpt>
      <trkpt lat="46.22879" lon="6.20716">
        <ele>465</ele>
        <time>2022-10-04T12:59:48Z</time>
      </trkpt>
      <trkpt lat="46.22885" lon="6.20712">
        <ele>466</ele>
        <time>2022-10-04T12:59:51Z</time>
      </trkpt>
      <trkpt lat="46.22932" lon="6.20636">
        <ele>470</ele>
        <time>2022-10-04T13:00:17Z</time>
      </trkpt>
      <trkpt lat="46.22951" lon="6.20619">
        <ele>471</ele>
        <time>2022-10-04T13:00:25Z</time>
      </trkpt>
      <trkpt lat="46.22966" lon="6.20607">
        <ele>472</ele>
        <time>2022-10-04T13:00:33Z</time>
      </trkpt>
      <trkpt lat="46.22979" lon="6.20595">
        <ele>473</ele>
        <time>2022-10-04T13:00:39Z</time>
      </trkpt>
      <trkpt lat="46.22993" lon="6.20581">
        <ele>474</ele>
        <time>2022-10-04T13:00:46Z</time>
      </trkpt>
      <trkpt lat="46.23034" lon="6.2056">
        <ele>475</ele>
        <time>2022-10-04T13:02:08Z</time>
      </trkpt>
      <trkpt lat="46.23146" lon="6.20483">
        <ele>475</ele>
        <time>2022-10-04T13:02:39Z</time>
      </trkpt>
      <trkpt lat="46.2322" lon="6.20436">
        <ele>473</ele>
        <time>2022-10-04T13:02:53Z</time>
      </trkpt>
      <trkpt lat="46.23245" lon="6.20432">
        <ele>471</ele>
        <time>2022-10-04T13:02:56Z</time>
      </trkpt>
      <trkpt lat="46.23291" lon="6.20428">
        <ele>468</ele>
        <time>2022-10-04T13:03:01Z</time>
      </trkpt>
      <trkpt lat="46.23311" lon="6.20421">
        <ele>466</ele>
        <time>2022-10-04T13:03:03Z</time>
      </trkpt>
      <trkpt lat="46.23406" lon="6.20334">
        <ele>459</ele>
        <time>2022-10-04T13:03:21Z</time>
      </trkpt>
      <trkpt lat="46.23411" lon="6.2033">
        <ele>458</ele>
        <time>2022-10-04T13:03:27Z</time>
      </trkpt>
      <trkpt lat="46.23474" lon="6.20314">
        <ele>457</ele>
        <time>2022-10-04T13:03:58Z</time>
      </trkpt>
      <trkpt lat="46.2351" lon="6.20317">
        <ele>455</ele>
        <time>2022-10-04T13:04:03Z</time>
      </trkpt>
      <trkpt lat="46.23545" lon="6.20332">
        <ele>451</ele>
        <time>2022-10-04T13:04:08Z</time>
      </trkpt>
      <trkpt lat="46.23551" lon="6.20333">
        <ele>451</ele>
        <time>2022-10-04T13:04:09Z</time>
      </trkpt>
      <trkpt lat="46.23557" lon="6.20331">
        <ele>450</ele>
        <time>2022-10-04T13:04:10Z</time>
      </trkpt>
      <trkpt lat="46.23654" lon="6.20254">
        <ele>439</ele>
        <time>2022-10-04T13:04:31Z</time>
      </trkpt>
      <trkpt lat="46.23659" lon="6.20247">
        <ele>439</ele>
        <time>2022-10-04T13:04:34Z</time>
      </trkpt>
      <trkpt lat="46.23701" lon="6.20166">
        <ele>434</ele>
        <time>2022-10-04T13:04:52Z</time>
      </trkpt>
      <trkpt lat="46.2372" lon="6.20091">
        <ele>432</ele>
        <time>2022-10-04T13:05:04Z</time>
      </trkpt>
      <trkpt lat="46.2381" lon="6.19867">
        <ele>420</ele>
        <time>2022-10-04T13:05:30Z</time>
      </trkpt>
      <trkpt lat="46.23831" lon="6.19775">
        <ele>417</ele>
        <time>2022-10-04T13:05:50Z</time>
      </trkpt>
      <trkpt lat="46.23834" lon="6.19769">
        <ele>417</ele>
        <time>2022-10-04T13:05:52Z</time>
      </trkpt>
      <trkpt lat="46.2384" lon="6.19765">
        <ele>416</ele>
        <time>2022-10-04T13:05:54Z</time>
      </trkpt>
      <trkpt lat="46.23969" lon="6.19825">
        <ele>414</ele>
        <time>2022-10-04T13:06:26Z</time>
      </trkpt>
      <trkpt lat="46.23976" lon="6.19827">
        <ele>414</ele>
        <time>2022-10-04T13:06:28Z</time>
      </trkpt>
      <trkpt lat="46.23983" lon="6.19827">
        <ele>414</ele>
        <time>2022-10-04T13:06:30Z</time>
      </trkpt>
      <trkpt lat="46.23998" lon="6.19805">
        <ele>413</ele>
        <time>2022-10-04T13:06:35Z</time>
      </trkpt>
      <trkpt lat="46.24032" lon="6.19773">
        <ele>412</ele>
        <time>2022-10-04T13:06:43Z</time>
      </trkpt>
      <trkpt lat="46.24042" lon="6.19767">
        <ele>411</ele>
        <time>2022-10-04T13:06:45Z</time>
      </trkpt>
      <trkpt lat="46.24053" lon="6.19766">
        <ele>411</ele>
        <time>2022-10-04T13:06:47Z</time>
      </trkpt>
      <trkpt lat="46.24057" lon="6.19769">
        <ele>411</ele>
        <time>2022-10-04T13:06:48Z</time>
      </trkpt>
      <trkpt lat="46.24132" lon="6.19803">
        <ele>409</ele>
        <time>2022-10-04T13:07:03Z</time>
      </trkpt>
      <trkpt lat="46.24301" lon="6.19833">
        <ele>409</ele>
        <time>2022-10-04T13:07:34Z</time>
      </trkpt>
      <trkpt lat="46.24312" lon="6.19826">
        <ele>408</ele>
        <time>2022-10-04T13:07:36Z</time>
      </trkpt>
      <trkpt lat="46.24318" lon="6.19788">
        <ele>408</ele>
        <time>2022-10-04T13:07:41Z</time>
      </trkpt>
      <trkpt lat="46.24322" lon="6.19784">
        <ele>407</ele>
        <time>2022-10-04T13:07:42Z</time>
      </trkpt>
      <trkpt lat="46.24326" lon="6.19776">
        <ele>407</ele>
        <time>2022-10-04T13:07:43Z</time>
      </trkpt>
      <trkpt lat="46.24334" lon="6.19753">
        <ele>406</ele>
        <time>2022-10-04T13:07:46Z</time>
      </trkpt>
      <trkpt lat="46.24339" lon="6.19746">
        <ele>405</ele>
        <time>2022-10-04T13:07:47Z</time>
      </trkpt>
      <trkpt lat="46.24441" lon="6.19714">
        <ele>399</ele>
        <time>2022-10-04T13:08:03Z</time>
      </trkpt>
      <trkpt lat="46.24483" lon="6.19711">
        <ele>397</ele>
        <time>2022-10-04T13:08:11Z</time>
      </trkpt>
      <trkpt lat="46.24489" lon="6.19657">
        <ele>396</ele>
        <time>2022-10-04T13:08:17Z</time>
      </trkpt>
      <trkpt lat="46.24491" lon="6.19639">
        <ele>394</ele>
        <time>2022-10-04T13:08:19Z</time>
      </trkpt>
      <trkpt lat="46.24491" lon="6.19632">
        <ele>394</ele>
        <time>2022-10-04T13:08:20Z</time>
      </trkpt>
      <trkpt lat="46.24518" lon="6.19339">
        <ele>372</ele>
        <time>2022-10-04T13:08:48Z</time>
      </trkpt>
      <trkpt lat="46.24525" lon="6.19343">
        <ele>371</ele>
        <time>2022-10-04T13:08:50Z</time>
      </trkpt>
      <trkpt lat="46.24623" lon="6.19331">
        <ele>371</ele>
        <time>2022-10-04T13:09:15Z</time>
      </trkpt>
      <trkpt lat="46.24631" lon="6.19332">
        <ele>371</ele>
        <time>2022-10-04T13:09:21Z</time>
      </trkpt>
      <trkpt lat="46.24638" lon="6.1925">
        <ele>370</ele>
        <time>2022-10-04T13:09:35Z</time>
      </trkpt>
      <trkpt lat="46.24634" lon="6.19235">
        <ele>370</ele>
        <time>2022-10-04T13:09:40Z</time>
      </trkpt>
      <trkpt lat="46.24631" lon="6.19232">
        <ele>370</ele>
        <time>2022-10-04T13:09:43Z</time>
      </trkpt>
      <trkpt lat="46.24634" lon="6.19231">
        <ele>369</ele>
        <time>2022-10-04T13:10:20Z</time>
      </trkpt>
      <trkpt lat="46.24638" lon="6.19236">
        <ele>369</ele>
        <time>2022-10-04T13:10:22Z</time>
      </trkpt>
      <trkpt lat="46.24637" lon="6.19284">
        <ele>370</ele>
        <time>2022-10-04T13:10:31Z</time>
      </trkpt>
      <trkpt lat="46.24625" lon="6.1937">
        <ele>371</ele>
        <time>2022-10-04T13:10:47Z</time>
      </trkpt>
      <trkpt lat="46.24631" lon="6.19384">
        <ele>372</ele>
        <time>2022-10-04T13:10:50Z</time>
      </trkpt>
      <trkpt lat="46.24631" lon="6.19392">
        <ele>372</ele>
        <time>2022-10-04T13:10:52Z</time>
      </trkpt>
      <trkpt lat="46.24632" lon="6.19399">
        <ele>373</ele>
        <time>2022-10-04T13:10:54Z</time>
      </trkpt>
      <trkpt lat="46.24638" lon="6.19403">
        <ele>373</ele>
        <time>2022-10-04T13:10:55Z</time>
      </trkpt>
      <trkpt lat="46.24648" lon="6.1941">
        <ele>374</ele>
        <time>2022-10-04T13:11:01Z</time>
      </trkpt>
      <trkpt lat="46.24655" lon="6.19405">
        <ele>374</ele>
        <time>2022-10-04T13:11:03Z</time>
      </trkpt>
      <trkpt lat="46.24726" lon="6.194">
        <ele>375</ele>
        <time>2022-10-04T13:11:23Z</time>
      </trkpt>
      <trkpt lat="46.24722" lon="6.19408">
        <ele>375</ele>
        <time>2022-10-04T13:11:26Z</time>
      </trkpt>
      <trkpt lat="46.24716" lon="6.19528">
        <ele>382</ele>
        <time>2022-10-04T13:11:57Z</time>
      </trkpt>
      <trkpt lat="46.24709" lon="6.19653">
        <ele>388</ele>
        <time>2022-10-04T13:12:25Z</time>
      </trkpt>
      <trkpt lat="46.24721" lon="6.19665">
        <ele>389</ele>
        <time>2022-10-04T13:12:29Z</time>
      </trkpt>
      <trkpt lat="46.24747" lon="6.19657">
        <ele>389</ele>
        <time>2022-10-04T13:12:37Z</time>
      </trkpt>
      <trkpt lat="46.24874" lon="6.19599">
        <ele>386</ele>
        <time>2022-10-04T13:13:05Z</time>
      </trkpt>
      <trkpt lat="46.24883" lon="6.19585">
        <ele>386</ele>
        <time>2022-10-04T13:13:08Z</time>
      </trkpt>
      <trkpt lat="46.249" lon="6.19564">
        <ele>385</ele>
        <time>2022-10-04T13:13:12Z</time>
      </trkpt>
      <trkpt lat="46.24905" lon="6.19552">
        <ele>384</ele>
        <time>2022-10-04T13:13:14Z</time>
      </trkpt>
      <trkpt lat="46.24911" lon="6.1955">
        <ele>384</ele>
        <time>2022-10-04T13:13:15Z</time>
      </trkpt>
      <trkpt lat="46.24923" lon="6.19542">
        <ele>384</ele>
        <time>2022-10-04T13:13:18Z</time>
      </trkpt>
      <trkpt lat="46.24956" lon="6.19543">
        <ele>383</ele>
        <time>2022-10-04T13:13:25Z</time>
      </trkpt>
      <trkpt lat="46.24962" lon="6.1954">
        <ele>383</ele>
        <time>2022-10-04T13:13:26Z</time>
      </trkpt>
      <trkpt lat="46.25043" lon="6.19549">
        <ele>382</ele>
        <time>2022-10-04T13:13:40Z</time>
      </trkpt>
      <trkpt lat="46.25062" lon="6.19539">
        <ele>382</ele>
        <time>2022-10-04T13:13:44Z</time>
      </trkpt>
      <trkpt lat="46.25086" lon="6.19529">
        <ele>381</ele>
        <time>2022-10-04T13:13:49Z</time>
      </trkpt>
      <trkpt lat="46.25098" lon="6.19526">
        <ele>381</ele>
        <time>2022-10-04T13:13:51Z</time>
      </trkpt>
      <trkpt lat="46.25121" lon="6.19534">
        <ele>381</ele>
        <time>2022-10-04T13:13:55Z</time>
      </trkpt>
      <trkpt lat="46.25132" lon="6.19546">
        <ele>381</ele>
        <time>2022-10-04T13:13:57Z</time>
      </trkpt>
      <trkpt lat="46.25218" lon="6.19589">
        <ele>379</ele>
        <time>2022-10-04T13:14:13Z</time>
      </trkpt>
      <trkpt lat="46.25224" lon="6.19596">
        <ele>379</ele>
        <time>2022-10-04T13:14:15Z</time>
      </trkpt>
      <trkpt lat="46.25226" lon="6.19609">
        <ele>379</ele>
        <time>2022-10-04T13:14:17Z</time>
      </trkpt>
      <trkpt lat="46.25215" lon="6.19674">
        <ele>381</ele>
        <time>2022-10-04T13:14:27Z</time>
      </trkpt>
      <trkpt lat="46.25207" lon="6.19735">
        <ele>382</ele>
        <time>2022-10-04T13:14:38Z</time>
      </trkpt>
      <trkpt lat="46.25206" lon="6.19747">
        <ele>382</ele>
        <time>2022-10-04T13:14:40Z</time>
      </trkpt>
      <trkpt lat="46.25202" lon="6.19752">
        <ele>383</ele>
        <time>2022-10-04T13:14:41Z</time>
      </trkpt>
      <trkpt lat="46.25195" lon="6.19797">
        <ele>383</ele>
        <time>2022-10-04T13:14:49Z</time>
      </trkpt>
      <trkpt lat="46.25192" lon="6.19807">
        <ele>384</ele>
        <time>2022-10-04T13:14:51Z</time>
      </trkpt>
      <trkpt lat="46.25193" lon="6.19817">
        <ele>384</ele>
        <time>2022-10-04T13:14:53Z</time>
      </trkpt>
      <trkpt lat="46.2518" lon="6.19905">
        <ele>386</ele>
        <time>2022-10-04T13:15:11Z</time>
      </trkpt>
      <trkpt lat="46.25222" lon="6.19902">
        <ele>386</ele>
        <time>2022-10-04T13:15:18Z</time>
      </trkpt>
      <trkpt lat="46.25268" lon="6.19867">
        <ele>385</ele>
        <time>2022-10-04T13:15:28Z</time>
      </trkpt>
      <trkpt lat="46.25277" lon="6.19857">
        <ele>384</ele>
        <time>2022-10-04T13:15:30Z</time>
      </trkpt>
      <trkpt lat="46.25303" lon="6.19847">
        <ele>384</ele>
        <time>2022-10-04T13:15:36Z</time>
      </trkpt>
      <trkpt lat="46.25371" lon="6.19943">
        <ele>384</ele>
        <time>2022-10-04T13:15:57Z</time>
      </trkpt>
      <trkpt lat="46.25494" lon="6.20059">
        <ele>388</ele>
        <time>2022-10-04T13:16:28Z</time>
      </trkpt>
      <trkpt lat="46.25505" lon="6.20068">
        <ele>389</ele>
        <time>2022-10-04T13:16:32Z</time>
      </trkpt>
      <trkpt lat="46.25511" lon="6.20069">
        <ele>389</ele>
        <time>2022-10-04T13:16:34Z</time>
      </trkpt>
      <trkpt lat="46.25516" lon="6.2007">
        <ele>389</ele>
        <time>2022-10-04T13:16:35Z</time>
      </trkpt>
      <trkpt lat="46.25523" lon="6.20057">
        <ele>389</ele>
        <time>2022-10-04T13:16:37Z</time>
      </trkpt>
      <trkpt lat="46.25627" lon="6.19905">
        <ele>384</ele>
        <time>2022-10-04T13:17:01Z</time>
      </trkpt>
      <trkpt lat="46.25725" lon="6.19639">
        <ele>373</ele>
        <time>2022-10-04T13:17:32Z</time>
      </trkpt>
      <trkpt lat="46.25877" lon="6.19713">
        <ele>375</ele>
        <time>2022-10-04T13:18:03Z</time>
      </trkpt>
      <trkpt lat="46.26036" lon="6.19799">
        <ele>375</ele>
        <time>2022-10-04T13:18:34Z</time>
      </trkpt>
      <trkpt lat="46.2613" lon="6.19849">
        <ele>375</ele>
        <time>2022-10-04T13:18:51Z</time>
      </trkpt>
      <trkpt lat="46.26132" lon="6.19869">
        <ele>375</ele>
        <time>2022-10-04T13:18:54Z</time>
      </trkpt>
      <trkpt lat="46.26116" lon="6.19965">
        <ele>374</ele>
        <time>2022-10-04T13:19:06Z</time>
      </trkpt>
      <trkpt lat="46.26116" lon="6.19976">
        <ele>374</ele>
        <time>2022-10-04T13:19:07Z</time>
      </trkpt>
      <trkpt lat="46.26119" lon="6.20012">
        <ele>375</ele>
        <time>2022-10-04T13:19:12Z</time>
      </trkpt>
      <trkpt lat="46.26125" lon="6.20023">
        <ele>375</ele>
        <time>2022-10-04T13:19:14Z</time>
      </trkpt>
      <trkpt lat="46.26266" lon="6.20124">
        <ele>371</ele>
        <time>2022-10-04T13:19:38Z</time>
      </trkpt>
      <trkpt lat="46.26272" lon="6.20117">
        <ele>371</ele>
        <time>2022-10-04T13:19:39Z</time>
      </trkpt>
      <trkpt lat="46.26295" lon="6.20117">
        <ele>370</ele>
        <time>2022-10-04T13:19:43Z</time>
      </trkpt>
      <trkpt lat="46.26307" lon="6.20119">
        <ele>370</ele>
        <time>2022-10-04T13:19:45Z</time>
      </trkpt>
      <trkpt lat="46.2633" lon="6.20145">
        <ele>370</ele>
        <time>2022-10-04T13:19:51Z</time>
      </trkpt>
      <trkpt lat="46.26338" lon="6.20158">
        <ele>370</ele>
        <time>2022-10-04T13:19:53Z</time>
      </trkpt>
      <trkpt lat="46.2634" lon="6.20165">
        <ele>370</ele>
        <time>2022-10-04T13:19:54Z</time>
      </trkpt>
      <trkpt lat="46.26345" lon="6.20171">
        <ele>370</ele>
        <time>2022-10-04T13:19:55Z</time>
      </trkpt>
      <trkpt lat="46.26347" lon="6.2018">
        <ele>371</ele>
        <time>2022-10-04T13:19:56Z</time>
      </trkpt>
      <trkpt lat="46.26351" lon="6.20198">
        <ele>371</ele>
        <time>2022-10-04T13:19:58Z</time>
      </trkpt>
      <trkpt lat="46.26346" lon="6.20207">
        <ele>370</ele>
        <time>2022-10-04T13:19:59Z</time>
      </trkpt>
      <trkpt lat="46.2633" lon="6.20287">
        <ele>370</ele>
        <time>2022-10-04T13:20:11Z</time>
      </trkpt>
      <trkpt lat="46.26311" lon="6.2034">
        <ele>371</ele>
        <time>2022-10-04T13:20:18Z</time>
      </trkpt>
      <trkpt lat="46.26307" lon="6.20382">
        <ele>371</ele>
        <time>2022-10-04T13:20:23Z</time>
      </trkpt>
      <trkpt lat="46.26317" lon="6.20419">
        <ele>372</ele>
        <time>2022-10-04T13:20:29Z</time>
      </trkpt>
      <trkpt lat="46.26365" lon="6.20514">
        <ele>372</ele>
        <time>2022-10-04T13:20:44Z</time>
      </trkpt>
      <trkpt lat="46.26413" lon="6.20745">
        <ele>372</ele>
        <time>2022-10-04T13:21:16Z</time>
      </trkpt>
      <trkpt lat="46.26423" lon="6.20776">
        <ele>372</ele>
        <time>2022-10-04T13:21:21Z</time>
      </trkpt>
      <trkpt lat="46.2642" lon="6.20786">
        <ele>371</ele>
        <time>2022-10-04T13:21:23Z</time>
      </trkpt>
      <trkpt lat="46.26411" lon="6.20801">
        <ele>372</ele>
        <time>2022-10-04T13:21:26Z</time>
      </trkpt>
      <trkpt lat="46.26409" lon="6.20819">
        <ele>372</ele>
        <time>2022-10-04T13:21:28Z</time>
      </trkpt>
      <trkpt lat="46.26431" lon="6.20885">
        <ele>372</ele>
        <time>2022-10-04T13:21:37Z</time>
      </trkpt>
      <trkpt lat="46.26434" lon="6.20895">
        <ele>372</ele>
        <time>2022-10-04T13:21:39Z</time>
      </trkpt>
      <trkpt lat="46.26439" lon="6.20897">
        <ele>372</ele>
        <time>2022-10-04T13:21:40Z</time>
      </trkpt>
      <trkpt lat="46.26444" lon="6.20897">
        <ele>372</ele>
        <time>2022-10-04T13:21:41Z</time>
      </trkpt>
      <trkpt lat="46.26452" lon="6.20897">
        <ele>371</ele>
        <time>2022-10-04T13:21:43Z</time>
      </trkpt>
      <trkpt lat="46.26464" lon="6.20889">
        <ele>371</ele>
        <time>2022-10-04T13:21:46Z</time>
      </trkpt>
      <trkpt lat="46.26469" lon="6.20892">
        <ele>371</ele>
        <time>2022-10-04T13:21:47Z</time>
      </trkpt>
      <trkpt lat="46.26504" lon="6.20994">
        <ele>371</ele>
        <time>2022-10-04T13:22:03Z</time>
      </trkpt>
      <trkpt lat="46.26514" lon="6.21012">
        <ele>371</ele>
        <time>2022-10-04T13:22:07Z</time>
      </trkpt>
      <trkpt lat="46.26517" lon="6.21017">
        <ele>371</ele>
        <time>2022-10-04T13:22:09Z</time>
      </trkpt>
      <trkpt lat="46.26534" lon="6.20996">
        <ele>371</ele>
        <time>2022-10-04T13:22:14Z</time>
      </trkpt>
      <trkpt lat="46.26541" lon="6.20996">
        <ele>370</ele>
        <time>2022-10-04T13:22:16Z</time>
      </trkpt>
      <trkpt lat="46.26555" lon="6.21001">
        <ele>370</ele>
        <time>2022-10-04T13:22:20Z</time>
      </trkpt>
      <trkpt lat="46.2666" lon="6.21131">
        <ele>370</ele>
        <time>2022-10-04T13:22:52Z</time>
      </trkpt>
      <trkpt lat="46.26746" lon="6.21265">
        <ele>370</ele>
        <time>2022-10-04T13:23:19Z</time>
      </trkpt>
      <trkpt lat="46.26749" lon="6.21274">
        <ele>370</ele>
        <time>2022-10-04T13:23:21Z</time>
      </trkpt>
      <trkpt lat="46.26756" lon="6.21277">
        <ele>370</ele>
        <time>2022-10-04T13:23:23Z</time>
      </trkpt>
      <trkpt lat="46.2686" lon="6.21372">
        <ele>370</ele>
        <time>2022-10-04T13:23:47Z</time>
      </trkpt>
      <trkpt lat="46.26902" lon="6.214">
        <ele>370</ele>
        <time>2022-10-04T13:23:56Z</time>
      </trkpt>
      <trkpt lat="46.27009" lon="6.21442">
        <ele>370</ele>
        <time>2022-10-04T13:24:20Z</time>
      </trkpt>
      <trkpt lat="46.27014" lon="6.21451">
        <ele>370</ele>
        <time>2022-10-04T13:24:22Z</time>
      </trkpt>
      <trkpt lat="46.27018" lon="6.21455">
        <ele>370</ele>
        <time>2022-10-04T13:24:24Z</time>
      </trkpt>
      <trkpt lat="46.27071" lon="6.21666">
        <ele>373</ele>
        <time>2022-10-04T13:24:55Z</time>
      </trkpt>
      <trkpt lat="46.27074" lon="6.21691">
        <ele>374</ele>
        <time>2022-10-04T13:24:59Z</time>
      </trkpt>
      <trkpt lat="46.27082" lon="6.21713">
        <ele>373</ele>
        <time>2022-10-04T13:25:03Z</time>
      </trkpt>
      <trkpt lat="46.27129" lon="6.21765">
        <ele>373</ele>
        <time>2022-10-04T13:25:16Z</time>
      </trkpt>
      <trkpt lat="46.27236" lon="6.21867">
        <ele>376</ele>
        <time>2022-10-04T13:25:46Z</time>
      </trkpt>
      <trkpt lat="46.27242" lon="6.21876">
        <ele>376</ele>
        <time>2022-10-04T13:25:48Z</time>
      </trkpt>
      <trkpt lat="46.27244" lon="6.21885">
        <ele>376</ele>
        <time>2022-10-04T13:25:50Z</time>
      </trkpt>
      <trkpt lat="46.27242" lon="6.21904">
        <ele>376</ele>
        <time>2022-10-04T13:25:54Z</time>
      </trkpt>
      <trkpt lat="46.27232" lon="6.21997">
        <ele>385</ele>
        <time>2022-10-04T13:26:20Z</time>
      </trkpt>
      <trkpt lat="46.27235" lon="6.22015">
        <ele>386</ele>
        <time>2022-10-04T13:26:24Z</time>
      </trkpt>
      <trkpt lat="46.27238" lon="6.22023">
        <ele>386</ele>
        <time>2022-10-04T13:26:26Z</time>
      </trkpt>
      <trkpt lat="46.27244" lon="6.22029">
        <ele>387</ele>
        <time>2022-10-04T13:26:28Z</time>
      </trkpt>
      <trkpt lat="46.27258" lon="6.22045">
        <ele>388</ele>
        <time>2022-10-04T13:26:36Z</time>
      </trkpt>
      <trkpt lat="46.27262" lon="6.22049">
        <ele>388</ele>
        <time>2022-10-04T13:26:38Z</time>
      </trkpt>
      <trkpt lat="46.2727" lon="6.22051">
        <ele>390</ele>
        <time>2022-10-04T13:26:44Z</time>
      </trkpt>
      <trkpt lat="46.27277" lon="6.22063">
        <ele>390</ele>
        <time>2022-10-04T13:26:52Z</time>
      </trkpt>
      <trkpt lat="46.27355" lon="6.22106">
        <ele>391</ele>
        <time>2022-10-04T13:27:12Z</time>
      </trkpt>
      <trkpt lat="46.27407" lon="6.22149">
        <ele>392</ele>
        <time>2022-10-04T13:27:26Z</time>
      </trkpt>
      <trkpt lat="46.27424" lon="6.22155">
        <ele>392</ele>
        <time>2022-10-04T13:27:30Z</time>
      </trkpt>
      <trkpt lat="46.27434" lon="6.22168">
        <ele>392</ele>
        <time>2022-10-04T13:27:34Z</time>
      </trkpt>
      <trkpt lat="46.27437" lon="6.22164">
        <ele>392</ele>
        <time>2022-10-04T13:27:44Z</time>
      </trkpt>
      <trkpt lat="46.27432" lon="6.2216">
        <ele>392</ele>
        <time>2022-10-04T13:27:47Z</time>
      </trkpt>
      <trkpt lat="46.27426" lon="6.22163">
        <ele>393</ele>
        <time>2022-10-04T13:27:57Z</time>
      </trkpt>
      <trkpt lat="46.27425" lon="6.22171">
        <ele>392</ele>
        <time>2022-10-04T13:29:16Z</time>
      </trkpt>
      <trkpt lat="46.27434" lon="6.22171">
        <ele>392</ele>
        <time>2022-10-04T13:30:10Z</time>
      </trkpt>
      <trkpt lat="46.27441" lon="6.22176">
        <ele>392</ele>
        <time>2022-10-04T13:30:12Z</time>
      </trkpt>
      <trkpt lat="46.27443" lon="6.22176">
        <ele>393</ele>
        <time>2022-10-04T13:30:44Z</time>
      </trkpt>
      <trkpt lat="46.27462" lon="6.22179">
        <ele>393</ele>
        <time>2022-10-04T13:30:52Z</time>
      </trkpt>
      <trkpt lat="46.27493" lon="6.22201">
        <ele>393</ele>
        <time>2022-10-04T13:31:01Z</time>
      </trkpt>
      <trkpt lat="46.275" lon="6.22199">
        <ele>394</ele>
        <time>2022-10-04T13:31:02Z</time>
      </trkpt>
      <trkpt lat="46.27621" lon="6.2227">
        <ele>397</ele>
        <time>2022-10-04T13:31:30Z</time>
      </trkpt>
      <trkpt lat="46.27754" lon="6.22391">
        <ele>396</ele>
        <time>2022-10-04T13:32:01Z</time>
      </trkpt>
      <trkpt lat="46.27901" lon="6.22542">
        <ele>393</ele>
        <time>2022-10-04T13:32:32Z</time>
      </trkpt>
      <trkpt lat="46.28056" lon="6.22703">
        <ele>392</ele>
        <time>2022-10-04T13:33:03Z</time>
      </trkpt>
      <trkpt lat="46.2822" lon="6.22853">
        <ele>389</ele>
        <time>2022-10-04T13:33:34Z</time>
      </trkpt>
      <trkpt lat="46.2838" lon="6.22981">
        <ele>389</ele>
        <time>2022-10-04T13:34:04Z</time>
      </trkpt>
      <trkpt lat="46.28492" lon="6.23093">
        <ele>392</ele>
        <time>2022-10-04T13:34:31Z</time>
      </trkpt>
      <trkpt lat="46.28526" lon="6.2314">
        <ele>393</ele>
        <time>2022-10-04T13:34:40Z</time>
      </trkpt>
      <trkpt lat="46.28528" lon="6.23147">
        <ele>393</ele>
        <time>2022-10-04T13:34:41Z</time>
      </trkpt>
      <trkpt lat="46.28533" lon="6.2315">
        <ele>393</ele>
        <time>2022-10-04T13:34:42Z</time>
      </trkpt>
      <trkpt lat="46.28631" lon="6.23358">
        <ele>393</ele>
        <time>2022-10-04T13:35:13Z</time>
      </trkpt>
      <trkpt lat="46.28737" lon="6.2354">
        <ele>392</ele>
        <time>2022-10-04T13:35:44Z</time>
      </trkpt>
      <trkpt lat="46.288" lon="6.23621">
        <ele>392</ele>
        <time>2022-10-04T13:35:58Z</time>
      </trkpt>
      <trkpt lat="46.28956" lon="6.23772">
        <ele>393</ele>
        <time>2022-10-04T13:36:30Z</time>
      </trkpt>
      <trkpt lat="46.29068" lon="6.23879">
        <ele>396</ele>
        <time>2022-10-04T13:37:01Z</time>
      </trkpt>
      <trkpt lat="46.29219" lon="6.24021">
        <ele>396</ele>
        <time>2022-10-04T13:37:32Z</time>
      </trkpt>
      <trkpt lat="46.2937" lon="6.24187">
        <ele>394</ele>
        <time>2022-10-04T13:38:03Z</time>
      </trkpt>
      <trkpt lat="46.29437" lon="6.24243">
        <ele>394</ele>
        <time>2022-10-04T13:38:16Z</time>
      </trkpt>
      <trkpt lat="46.29642" lon="6.24332">
        <ele>388</ele>
        <time>2022-10-04T13:38:47Z</time>
      </trkpt>
      <trkpt lat="46.29859" lon="6.24404">
        <ele>382</ele>
        <time>2022-10-04T13:39:18Z</time>
      </trkpt>
      <trkpt lat="46.29911" lon="6.24419">
        <ele>381</ele>
        <time>2022-10-04T13:39:26Z</time>
      </trkpt>
      <trkpt lat="46.30075" lon="6.24395">
        <ele>378</ele>
        <time>2022-10-04T13:39:52Z</time>
      </trkpt>
      <trkpt lat="46.30098" lon="6.24404">
        <ele>377</ele>
        <time>2022-10-04T13:39:56Z</time>
      </trkpt>
      <trkpt lat="46.30104" lon="6.24405">
        <ele>377</ele>
        <time>2022-10-04T13:39:57Z</time>
      </trkpt>
      <trkpt lat="46.30114" lon="6.244">
        <ele>377</ele>
        <time>2022-10-04T13:39:59Z</time>
      </trkpt>
      <trkpt lat="46.30114" lon="6.2439">
        <ele>377</ele>
        <time>2022-10-04T13:40:01Z</time>
      </trkpt>
      <trkpt lat="46.3012" lon="6.24386">
        <ele>376</ele>
        <time>2022-10-04T13:40:04Z</time>
      </trkpt>
      <trkpt lat="46.30123" lon="6.24393">
        <ele>376</ele>
        <time>2022-10-04T13:40:07Z</time>
      </trkpt>
      <trkpt lat="46.30101" lon="6.24446">
        <ele>379</ele>
        <time>2022-10-04T13:40:19Z</time>
      </trkpt>
      <trkpt lat="46.30093" lon="6.2447">
        <ele>380</ele>
        <time>2022-10-04T13:40:25Z</time>
      </trkpt>
      <trkpt lat="46.30073" lon="6.24479">
        <ele>382</ele>
        <time>2022-10-04T13:40:31Z</time>
      </trkpt>
      <trkpt lat="46.3006" lon="6.245">
        <ele>384</ele>
        <time>2022-10-04T13:40:37Z</time>
      </trkpt>
      <trkpt lat="46.30054" lon="6.24522">
        <ele>386</ele>
        <time>2022-10-04T13:40:43Z</time>
      </trkpt>
      <trkpt lat="46.30054" lon="6.24529">
        <ele>387</ele>
        <time>2022-10-04T13:40:45Z</time>
      </trkpt>
      <trkpt lat="46.30044" lon="6.24557">
        <ele>390</ele>
        <time>2022-10-04T13:40:55Z</time>
      </trkpt>
      <trkpt lat="46.30043" lon="6.24566">
        <ele>391</ele>
        <time>2022-10-04T13:40:58Z</time>
      </trkpt>
      <trkpt lat="46.30037" lon="6.24573">
        <ele>392</ele>
        <time>2022-10-04T13:41:01Z</time>
      </trkpt>
      <trkpt lat="46.30028" lon="6.24578">
        <ele>393</ele>
        <time>2022-10-04T13:41:05Z</time>
      </trkpt>
      <trkpt lat="46.30024" lon="6.24582">
        <ele>394</ele>
        <time>2022-10-04T13:41:07Z</time>
      </trkpt>
      <trkpt lat="46.30004" lon="6.24596">
        <ele>396</ele>
        <time>2022-10-04T13:41:17Z</time>
      </trkpt>
      <trkpt lat="46.29979" lon="6.24609">
        <ele>398</ele>
        <time>2022-10-04T13:41:25Z</time>
      </trkpt>
      <trkpt lat="46.29874" lon="6.24608">
        <ele>401</ele>
        <time>2022-10-04T13:41:56Z</time>
      </trkpt>
      <trkpt lat="46.29816" lon="6.24584">
        <ele>402</ele>
        <time>2022-10-04T13:42:14Z</time>
      </trkpt>
      <trkpt lat="46.29784" lon="6.24567">
        <ele>404</ele>
        <time>2022-10-04T13:42:24Z</time>
      </trkpt>
      <trkpt lat="46.29736" lon="6.24555">
        <ele>404</ele>
        <time>2022-10-04T13:42:39Z</time>
      </trkpt>
      <trkpt lat="46.29725" lon="6.24556">
        <ele>404</ele>
        <time>2022-10-04T13:42:43Z</time>
      </trkpt>
      <trkpt lat="46.29718" lon="6.24559">
        <ele>404</ele>
        <time>2022-10-04T13:42:48Z</time>
      </trkpt>
      <trkpt lat="46.2971" lon="6.24559">
        <ele>404</ele>
        <time>2022-10-04T13:43:01Z</time>
      </trkpt>
      <trkpt lat="46.29703" lon="6.24556">
        <ele>404</ele>
        <time>2022-10-04T13:43:04Z</time>
      </trkpt>
      <trkpt lat="46.29696" lon="6.24557">
        <ele>404</ele>
        <time>2022-10-04T13:43:06Z</time>
      </trkpt>
      <trkpt lat="46.29678" lon="6.24561">
        <ele>404</ele>
        <time>2022-10-04T13:43:09Z</time>
      </trkpt>
      <trkpt lat="46.29659" lon="6.24582">
        <ele>404</ele>
        <time>2022-10-04T13:43:14Z</time>
      </trkpt>
      <trkpt lat="46.29572" lon="6.24693">
        <ele>407</ele>
        <time>2022-10-04T13:43:44Z</time>
      </trkpt>
      <trkpt lat="46.29556" lon="6.24706">
        <ele>407</ele>
        <time>2022-10-04T13:43:48Z</time>
      </trkpt>
      <trkpt lat="46.29531" lon="6.24712">
        <ele>408</ele>
        <time>2022-10-04T13:43:53Z</time>
      </trkpt>
      <trkpt lat="46.2948" lon="6.24718">
        <ele>409</ele>
        <time>2022-10-04T13:44:04Z</time>
      </trkpt>
      <trkpt lat="46.29459" lon="6.2471">
        <ele>409</ele>
        <time>2022-10-04T13:44:09Z</time>
      </trkpt>
      <trkpt lat="46.29416" lon="6.2468">
        <ele>409</ele>
        <time>2022-10-04T13:44:19Z</time>
      </trkpt>
      <trkpt lat="46.29285" lon="6.24532">
        <ele>409</ele>
        <time>2022-10-04T13:44:50Z</time>
      </trkpt>
      <trkpt lat="46.2926" lon="6.24497">
        <ele>409</ele>
        <time>2022-10-04T13:44:56Z</time>
      </trkpt>
      <trkpt lat="46.29114" lon="6.24374">
        <ele>410</ele>
        <time>2022-10-04T13:45:27Z</time>
      </trkpt>
      <trkpt lat="46.28992" lon="6.24279">
        <ele>412</ele>
        <time>2022-10-04T13:45:55Z</time>
      </trkpt>
      <trkpt lat="46.28872" lon="6.24223">
        <ele>415</ele>
        <time>2022-10-04T13:46:26Z</time>
      </trkpt>
      <trkpt lat="46.28761" lon="6.2416">
        <ele>419</ele>
        <time>2022-10-04T13:46:58Z</time>
      </trkpt>
      <trkpt lat="46.28636" lon="6.24106">
        <ele>422</ele>
        <time>2022-10-04T13:47:29Z</time>
      </trkpt>
      <trkpt lat="46.28563" lon="6.24082">
        <ele>423</ele>
        <time>2022-10-04T13:47:46Z</time>
      </trkpt>
      <trkpt lat="46.28528" lon="6.24058">
        <ele>423</ele>
        <time>2022-10-04T13:47:53Z</time>
      </trkpt>
      <trkpt lat="46.28467" lon="6.23992">
        <ele>422</ele>
        <time>2022-10-04T13:48:09Z</time>
      </trkpt>
      <trkpt lat="46.28461" lon="6.23986">
        <ele>422</ele>
        <time>2022-10-04T13:48:11Z</time>
      </trkpt>
      <trkpt lat="46.28452" lon="6.23989">
        <ele>422</ele>
        <time>2022-10-04T13:48:12Z</time>
      </trkpt>
      <trkpt lat="46.28355" lon="6.24075">
        <ele>415</ele>
        <time>2022-10-04T13:48:36Z</time>
      </trkpt>
      <trkpt lat="46.28354" lon="6.24088">
        <ele>415</ele>
        <time>2022-10-04T13:48:37Z</time>
      </trkpt>
      <trkpt lat="46.28344" lon="6.24097">
        <ele>415</ele>
        <time>2022-10-04T13:48:39Z</time>
      </trkpt>
      <trkpt lat="46.2834" lon="6.24105">
        <ele>415</ele>
        <time>2022-10-04T13:48:41Z</time>
      </trkpt>
      <trkpt lat="46.2826" lon="6.24223">
        <ele>418</ele>
        <time>2022-10-04T13:49:05Z</time>
      </trkpt>
      <trkpt lat="46.2815" lon="6.2435">
        <ele>422</ele>
        <time>2022-10-04T13:49:36Z</time>
      </trkpt>
      <trkpt lat="46.28144" lon="6.24357">
        <ele>422</ele>
        <time>2022-10-04T13:49:38Z</time>
      </trkpt>
      <trkpt lat="46.28137" lon="6.24362">
        <ele>422</ele>
        <time>2022-10-04T13:49:40Z</time>
      </trkpt>
      <trkpt lat="46.28129" lon="6.24358">
        <ele>422</ele>
        <time>2022-10-04T13:49:42Z</time>
      </trkpt>
      <trkpt lat="46.28104" lon="6.24323">
        <ele>422</ele>
        <time>2022-10-04T13:49:51Z</time>
      </trkpt>
      <trkpt lat="46.28089" lon="6.24316">
        <ele>422</ele>
        <time>2022-10-04T13:49:55Z</time>
      </trkpt>
      <trkpt lat="46.28065" lon="6.24315">
        <ele>422</ele>
        <time>2022-10-04T13:50:01Z</time>
      </trkpt>
      <trkpt lat="46.28034" lon="6.24324">
        <ele>422</ele>
        <time>2022-10-04T13:50:07Z</time>
      </trkpt>
      <trkpt lat="46.28018" lon="6.24332">
        <ele>422</ele>
        <time>2022-10-04T13:50:11Z</time>
      </trkpt>
      <trkpt lat="46.27991" lon="6.24336">
        <ele>422</ele>
        <time>2022-10-04T13:50:16Z</time>
      </trkpt>
      <trkpt lat="46.27938" lon="6.24337">
        <ele>422</ele>
        <time>2022-10-04T13:50:26Z</time>
      </trkpt>
      <trkpt lat="46.27915" lon="6.24347">
        <ele>422</ele>
        <time>2022-10-04T13:50:30Z</time>
      </trkpt>
      <trkpt lat="46.27858" lon="6.24395">
        <ele>422</ele>
        <time>2022-10-04T13:50:42Z</time>
      </trkpt>
      <trkpt lat="46.27745" lon="6.24579">
        <ele>423</ele>
        <time>2022-10-04T13:51:13Z</time>
      </trkpt>
      <trkpt lat="46.27692" lon="6.24667">
        <ele>423</ele>
        <time>2022-10-04T13:51:30Z</time>
      </trkpt>
      <trkpt lat="46.27669" lon="6.24694">
        <ele>423</ele>
        <time>2022-10-04T13:51:38Z</time>
      </trkpt>
      <trkpt lat="46.2766" lon="6.2471">
        <ele>424</ele>
        <time>2022-10-04T13:51:41Z</time>
      </trkpt>
      <trkpt lat="46.27658" lon="6.24716">
        <ele>424</ele>
        <time>2022-10-04T13:51:42Z</time>
      </trkpt>
      <trkpt lat="46.27646" lon="6.24738">
        <ele>423</ele>
        <time>2022-10-04T13:51:46Z</time>
      </trkpt>
      <trkpt lat="46.27636" lon="6.2475">
        <ele>423</ele>
        <time>2022-10-04T13:51:49Z</time>
      </trkpt>
      <trkpt lat="46.27484" lon="6.24849">
        <ele>422</ele>
        <time>2022-10-04T13:52:20Z</time>
      </trkpt>
      <trkpt lat="46.2743" lon="6.2488">
        <ele>423</ele>
        <time>2022-10-04T13:52:32Z</time>
      </trkpt>
      <trkpt lat="46.27413" lon="6.24903">
        <ele>423</ele>
        <time>2022-10-04T13:52:36Z</time>
      </trkpt>
      <trkpt lat="46.27406" lon="6.24918">
        <ele>423</ele>
        <time>2022-10-04T13:52:39Z</time>
      </trkpt>
      <trkpt lat="46.27362" lon="6.25137">
        <ele>422</ele>
        <time>2022-10-04T13:53:10Z</time>
      </trkpt>
      <trkpt lat="46.27329" lon="6.25258">
        <ele>422</ele>
        <time>2022-10-04T13:53:28Z</time>
      </trkpt>
      <trkpt lat="46.27319" lon="6.25283">
        <ele>422</ele>
        <time>2022-10-04T13:53:32Z</time>
      </trkpt>
      <trkpt lat="46.27306" lon="6.25306">
        <ele>423</ele>
        <time>2022-10-04T13:53:36Z</time>
      </trkpt>
      <trkpt lat="46.27263" lon="6.25462">
        <ele>424</ele>
        <time>2022-10-04T13:54:06Z</time>
      </trkpt>
      <trkpt lat="46.27248" lon="6.25541">
        <ele>426</ele>
        <time>2022-10-04T13:54:19Z</time>
      </trkpt>
      <trkpt lat="46.27195" lon="6.25728">
        <ele>427</ele>
        <time>2022-10-04T13:54:50Z</time>
      </trkpt>
      <trkpt lat="46.27177" lon="6.25779">
        <ele>427</ele>
        <time>2022-10-04T13:54:59Z</time>
      </trkpt>
      <trkpt lat="46.27175" lon="6.25793">
        <ele>427</ele>
        <time>2022-10-04T13:55:03Z</time>
      </trkpt>
      <trkpt lat="46.27172" lon="6.258">
        <ele>427</ele>
        <time>2022-10-04T13:55:05Z</time>
      </trkpt>
      <trkpt lat="46.27169" lon="6.25808">
        <ele>426</ele>
        <time>2022-10-04T13:57:10Z</time>
      </trkpt>
      <trkpt lat="46.2717" lon="6.25818">
        <ele>426</ele>
        <time>2022-10-04T13:57:12Z</time>
      </trkpt>
      <trkpt lat="46.27176" lon="6.25832">
        <ele>426</ele>
        <time>2022-10-04T13:57:15Z</time>
      </trkpt>
      <trkpt lat="46.27192" lon="6.25843">
        <ele>427</ele>
        <time>2022-10-04T13:57:19Z</time>
      </trkpt>
      <trkpt lat="46.27195" lon="6.2585">
        <ele>427</ele>
        <time>2022-10-04T13:57:21Z</time>
      </trkpt>
      <trkpt lat="46.27191" lon="6.25871">
        <ele>427</ele>
        <time>2022-10-04T13:57:25Z</time>
      </trkpt>
      <trkpt lat="46.27135" lon="6.26032">
        <ele>427</ele>
        <time>2022-10-04T13:57:54Z</time>
      </trkpt>
      <trkpt lat="46.27123" lon="6.26081">
        <ele>427</ele>
        <time>2022-10-04T13:58:04Z</time>
      </trkpt>
      <trkpt lat="46.2712" lon="6.26088">
        <ele>428</ele>
        <time>2022-10-04T13:58:06Z</time>
      </trkpt>
      <trkpt lat="46.27115" lon="6.26089">
        <ele>428</ele>
        <time>2022-10-04T13:58:11Z</time>
      </trkpt>
      <trkpt lat="46.27108" lon="6.26086">
        <ele>428</ele>
        <time>2022-10-04T13:58:49Z</time>
      </trkpt>
      <trkpt lat="46.27033" lon="6.26045">
        <ele>429</ele>
        <time>2022-10-04T13:59:09Z</time>
      </trkpt>
      <trkpt lat="46.27028" lon="6.2604">
        <ele>429</ele>
        <time>2022-10-04T13:59:11Z</time>
      </trkpt>
      <trkpt lat="46.27025" lon="6.26031">
        <ele>429</ele>
        <time>2022-10-04T13:59:14Z</time>
      </trkpt>
      <trkpt lat="46.27031" lon="6.2601">
        <ele>429</ele>
        <time>2022-10-04T13:59:18Z</time>
      </trkpt>
      <trkpt lat="46.27033" lon="6.26003">
        <ele>429</ele>
        <time>2022-10-04T13:59:20Z</time>
      </trkpt>
      <trkpt lat="46.27028" lon="6.25998">
        <ele>429</ele>
        <time>2022-10-04T13:59:25Z</time>
      </trkpt>
      <trkpt lat="46.27023" lon="6.26001">
        <ele>429</ele>
        <time>2022-10-04T13:59:37Z</time>
      </trkpt>
      <trkpt lat="46.27018" lon="6.26001">
        <ele>429</ele>
        <time>2022-10-04T13:59:41Z</time>
      </trkpt>
      <trkpt lat="46.27008" lon="6.25987">
        <ele>429</ele>
        <time>2022-10-04T13:59:45Z</time>
      </trkpt>
      <trkpt lat="46.27003" lon="6.2598">
        <ele>429</ele>
        <time>2022-10-04T13:59:47Z</time>
      </trkpt>
      <trkpt lat="46.2699" lon="6.25974">
        <ele>429</ele>
        <time>2022-10-04T13:59:51Z</time>
      </trkpt>
      <trkpt lat="46.26974" lon="6.25975">
        <ele>429</ele>
        <time>2022-10-04T13:59:57Z</time>
      </trkpt>
      <trkpt lat="46.26969" lon="6.25969">
        <ele>430</ele>
        <time>2022-10-04T13:59:59Z</time>
      </trkpt>
      <trkpt lat="46.26959" lon="6.25936">
        <ele>430</ele>
        <time>2022-10-04T14:00:05Z</time>
      </trkpt>
      <trkpt lat="46.26956" lon="6.25928">
        <ele>430</ele>
        <time>2022-10-04T14:00:07Z</time>
      </trkpt>
      <trkpt lat="46.26943" lon="6.25914">
        <ele>430</ele>
        <time>2022-10-04T14:00:13Z</time>
      </trkpt>
      <trkpt lat="46.26937" lon="6.25912">
        <ele>430</ele>
        <time>2022-10-04T14:00:16Z</time>
      </trkpt>
      <trkpt lat="46.26933" lon="6.25906">
        <ele>430</ele>
        <time>2022-10-04T14:00:19Z</time>
      </trkpt>
      <trkpt lat="46.26951" lon="6.25874">
        <ele>430</ele>
        <time>2022-10-04T14:00:26Z</time>
      </trkpt>
      <trkpt lat="46.26953" lon="6.25868">
        <ele>430</ele>
        <time>2022-10-04T14:00:28Z</time>
      </trkpt>
      <trkpt lat="46.26951" lon="6.2586">
        <ele>430</ele>
        <time>2022-10-04T14:00:30Z</time>
      </trkpt>
      <trkpt lat="46.26946" lon="6.25853">
        <ele>430</ele>
        <time>2022-10-04T14:00:32Z</time>
      </trkpt>
      <trkpt lat="46.26929" lon="6.25842">
        <ele>430</ele>
        <time>2022-10-04T14:00:36Z</time>
      </trkpt>
      <trkpt lat="46.26924" lon="6.25836">
        <ele>430</ele>
        <time>2022-10-04T14:00:38Z</time>
      </trkpt>
      <trkpt lat="46.26923" lon="6.25826">
        <ele>430</ele>
        <time>2022-10-04T14:00:40Z</time>
      </trkpt>
      <trkpt lat="46.26926" lon="6.25819">
        <ele>430</ele>
        <time>2022-10-04T14:00:42Z</time>
      </trkpt>
      <trkpt lat="46.26925" lon="6.25813">
        <ele>430</ele>
        <time>2022-10-04T14:00:44Z</time>
      </trkpt>
      <trkpt lat="46.26916" lon="6.25808">
        <ele>430</ele>
        <time>2022-10-04T14:00:51Z</time>
      </trkpt>
      <trkpt lat="46.26897" lon="6.25812">
        <ele>430</ele>
        <time>2022-10-04T14:00:56Z</time>
      </trkpt>
      <trkpt lat="46.26885" lon="6.25812">
        <ele>430</ele>
        <time>2022-10-04T14:00:58Z</time>
      </trkpt>
    </trkseg>
  </trk>
</gpx>